<?xml version="1.0" encoding="UTF-8" standalone="no" ?>
<gpx xmlns="http://www.topografix.com/GPX/1/1" xmlns:xsi="http://www.w3.org/2001/XMLSchema-instance" xsi:schemaLocation="http://www.topografix.com/GPX/1/1 http://www.topografix.com/GPX/1/1/gpx.xsd" version="1.1" creator="VisuGPX - https://www.visugpx.com">
  <metadata>
    <name>Communay - Rando de la Rosette - 113 - UtagawaVTT.com</name>
    <desc><![CDATA[Communay - Rando de la Rosette - 113 - UtagawaVTT.com 40 km 1100 d]]></desc>
  </metadata>
  <trk>
    <name><![CDATA[Communay - Rando de la Rosette - 113 - UtagawaVTT.com]]></name>
    <trkseg>
      <trkpt lat="45.60455" lon="4.82935">
        <ele>223</ele>
        <time>2005-03-20T08:40:21Z</time>
      </trkpt>
      <trkpt lat="45.60455" lon="4.82926">
        <ele>223</ele>
        <time>2005-03-20T08:41:18Z</time>
      </trkpt>
      <trkpt lat="45.60476" lon="4.82903">
        <ele>223</ele>
        <time>2005-03-20T08:41:32Z</time>
      </trkpt>
      <trkpt lat="45.60481" lon="4.82853">
        <ele>223</ele>
        <time>2005-03-20T08:41:44Z</time>
      </trkpt>
      <trkpt lat="45.60485" lon="4.82838">
        <ele>223</ele>
        <time>2005-03-20T08:41:57Z</time>
      </trkpt>
      <trkpt lat="45.60502" lon="4.82828">
        <ele>223</ele>
        <time>2005-03-20T08:42:07Z</time>
      </trkpt>
      <trkpt lat="45.60556" lon="4.82821">
        <ele>225</ele>
        <time>2005-03-20T08:42:26Z</time>
      </trkpt>
      <trkpt lat="45.60586" lon="4.82815">
        <ele>226</ele>
        <time>2005-03-20T08:42:38Z</time>
      </trkpt>
      <trkpt lat="45.60592" lon="4.82834">
        <ele>227</ele>
        <time>2005-03-20T08:42:47Z</time>
      </trkpt>
      <trkpt lat="45.60594" lon="4.82868">
        <ele>227</ele>
        <time>2005-03-20T08:43:03Z</time>
      </trkpt>
      <trkpt lat="45.60605" lon="4.82952">
        <ele>229</ele>
        <time>2005-03-20T08:43:24Z</time>
      </trkpt>
      <trkpt lat="45.60609" lon="4.82995">
        <ele>230</ele>
        <time>2005-03-20T08:43:35Z</time>
      </trkpt>
      <trkpt lat="45.60618" lon="4.83006">
        <ele>233</ele>
        <time>2005-03-20T08:43:41Z</time>
      </trkpt>
      <trkpt lat="45.60631" lon="4.82999">
        <ele>234</ele>
        <time>2005-03-20T08:43:47Z</time>
      </trkpt>
      <trkpt lat="45.6065" lon="4.82982">
        <ele>238</ele>
        <time>2005-03-20T08:43:57Z</time>
      </trkpt>
      <trkpt lat="45.60657" lon="4.8298">
        <ele>239</ele>
        <time>2005-03-20T08:44:00Z</time>
      </trkpt>
      <trkpt lat="45.60669" lon="4.83004">
        <ele>242</ele>
        <time>2005-03-20T08:44:12Z</time>
      </trkpt>
      <trkpt lat="45.6068" lon="4.83027">
        <ele>245</ele>
        <time>2005-03-20T08:44:23Z</time>
      </trkpt>
      <trkpt lat="45.60691" lon="4.83062">
        <ele>249</ele>
        <time>2005-03-20T08:44:37Z</time>
      </trkpt>
      <trkpt lat="45.60736" lon="4.83143">
        <ele>253</ele>
        <time>2005-03-20T08:45:08Z</time>
      </trkpt>
      <trkpt lat="45.6077" lon="4.83147">
        <ele>254</ele>
        <time>2005-03-20T08:45:22Z</time>
      </trkpt>
      <trkpt lat="45.60796" lon="4.83158">
        <ele>254</ele>
        <time>2005-03-20T08:45:32Z</time>
      </trkpt>
      <trkpt lat="45.60833" lon="4.83233">
        <ele>254</ele>
        <time>2005-03-20T08:45:48Z</time>
      </trkpt>
      <trkpt lat="45.60882" lon="4.83268">
        <ele>252</ele>
        <time>2005-03-20T08:45:58Z</time>
      </trkpt>
      <trkpt lat="45.6091" lon="4.83283">
        <ele>254</ele>
        <time>2005-03-20T08:46:06Z</time>
      </trkpt>
      <trkpt lat="45.60959" lon="4.83244">
        <ele>257</ele>
        <time>2005-03-20T08:46:19Z</time>
      </trkpt>
      <trkpt lat="45.60989" lon="4.83223">
        <ele>261</ele>
        <time>2005-03-20T08:46:34Z</time>
      </trkpt>
      <trkpt lat="45.61015" lon="4.83201">
        <ele>264</ele>
        <time>2005-03-20T08:46:50Z</time>
      </trkpt>
      <trkpt lat="45.61034" lon="4.8319">
        <ele>268</ele>
        <time>2005-03-20T08:47:02Z</time>
      </trkpt>
      <trkpt lat="45.61079" lon="4.8316">
        <ele>277</ele>
        <time>2005-03-20T08:47:34Z</time>
      </trkpt>
      <trkpt lat="45.61099" lon="4.83145">
        <ele>279</ele>
        <time>2005-03-20T08:47:48Z</time>
      </trkpt>
      <trkpt lat="45.61131" lon="4.8319">
        <ele>282</ele>
        <time>2005-03-20T08:48:07Z</time>
      </trkpt>
      <trkpt lat="45.61142" lon="4.83212">
        <ele>284</ele>
        <time>2005-03-20T08:48:18Z</time>
      </trkpt>
      <trkpt lat="45.61152" lon="4.83229">
        <ele>288</ele>
        <time>2005-03-20T08:48:29Z</time>
      </trkpt>
      <trkpt lat="45.61159" lon="4.83244">
        <ele>290</ele>
        <time>2005-03-20T08:48:39Z</time>
      </trkpt>
      <trkpt lat="45.61172" lon="4.83265">
        <ele>294</ele>
        <time>2005-03-20T08:48:53Z</time>
      </trkpt>
      <trkpt lat="45.61204" lon="4.83298">
        <ele>295</ele>
        <time>2005-03-20T08:49:11Z</time>
      </trkpt>
      <trkpt lat="45.61251" lon="4.83356">
        <ele>291</ele>
        <time>2005-03-20T08:49:26Z</time>
      </trkpt>
      <trkpt lat="45.613" lon="4.83433">
        <ele>289</ele>
        <time>2005-03-20T08:49:38Z</time>
      </trkpt>
      <trkpt lat="45.61393" lon="4.83594">
        <ele>277</ele>
        <time>2005-03-20T08:49:57Z</time>
      </trkpt>
      <trkpt lat="45.61399" lon="4.83607">
        <ele>278</ele>
        <time>2005-03-20T08:49:58Z</time>
      </trkpt>
      <trkpt lat="45.61425" lon="4.83639">
        <ele>278</ele>
        <time>2005-03-20T08:50:05Z</time>
      </trkpt>
      <trkpt lat="45.61549" lon="4.83686">
        <ele>275</ele>
        <time>2005-03-20T08:50:21Z</time>
      </trkpt>
      <trkpt lat="45.61629" lon="4.8371">
        <ele>279</ele>
        <time>2005-03-20T08:50:34Z</time>
      </trkpt>
      <trkpt lat="45.61635" lon="4.8371">
        <ele>279</ele>
        <time>2005-03-20T08:50:35Z</time>
      </trkpt>
      <trkpt lat="45.61738" lon="4.83738">
        <ele>270</ele>
        <time>2005-03-20T08:50:52Z</time>
      </trkpt>
      <trkpt lat="45.61781" lon="4.83757">
        <ele>263</ele>
        <time>2005-03-20T08:50:59Z</time>
      </trkpt>
      <trkpt lat="45.61845" lon="4.83791">
        <ele>255</ele>
        <time>2005-03-20T08:51:06Z</time>
      </trkpt>
      <trkpt lat="45.6186" lon="4.83798">
        <ele>256</ele>
        <time>2005-03-20T08:51:09Z</time>
      </trkpt>
      <trkpt lat="45.61865" lon="4.83798">
        <ele>256</ele>
        <time>2005-03-20T08:51:10Z</time>
      </trkpt>
      <trkpt lat="45.61873" lon="4.83787">
        <ele>254</ele>
        <time>2005-03-20T08:51:14Z</time>
      </trkpt>
      <trkpt lat="45.6188" lon="4.83731">
        <ele>254</ele>
        <time>2005-03-20T08:51:24Z</time>
      </trkpt>
      <trkpt lat="45.61875" lon="4.83684">
        <ele>252</ele>
        <time>2005-03-20T08:51:31Z</time>
      </trkpt>
      <trkpt lat="45.61843" lon="4.83572">
        <ele>255</ele>
        <time>2005-03-20T08:51:49Z</time>
      </trkpt>
      <trkpt lat="45.61813" lon="4.83486">
        <ele>259</ele>
        <time>2005-03-20T08:52:09Z</time>
      </trkpt>
      <trkpt lat="45.61813" lon="4.83482">
        <ele>259</ele>
        <time>2005-03-20T08:52:10Z</time>
      </trkpt>
      <trkpt lat="45.61787" lon="4.83403">
        <ele>260</ele>
        <time>2005-03-20T08:52:30Z</time>
      </trkpt>
      <trkpt lat="45.61781" lon="4.83364">
        <ele>263</ele>
        <time>2005-03-20T08:52:40Z</time>
      </trkpt>
      <trkpt lat="45.6176" lon="4.8325">
        <ele>268</ele>
        <time>2005-03-20T08:53:11Z</time>
      </trkpt>
      <trkpt lat="45.61747" lon="4.83199">
        <ele>267</ele>
        <time>2005-03-20T08:53:21Z</time>
      </trkpt>
      <trkpt lat="45.61732" lon="4.83158">
        <ele>267</ele>
        <time>2005-03-20T08:53:28Z</time>
      </trkpt>
      <trkpt lat="45.61693" lon="4.8312">
        <ele>265</ele>
        <time>2005-03-20T08:53:38Z</time>
      </trkpt>
      <trkpt lat="45.6165" lon="4.83105">
        <ele>264</ele>
        <time>2005-03-20T08:53:47Z</time>
      </trkpt>
      <trkpt lat="45.61575" lon="4.83042">
        <ele>267</ele>
        <time>2005-03-20T08:54:09Z</time>
      </trkpt>
      <trkpt lat="45.61554" lon="4.8301">
        <ele>267</ele>
        <time>2005-03-20T08:54:18Z</time>
      </trkpt>
      <trkpt lat="45.61564" lon="4.82995">
        <ele>268</ele>
        <time>2005-03-20T08:54:23Z</time>
      </trkpt>
      <trkpt lat="45.61611" lon="4.82978">
        <ele>264</ele>
        <time>2005-03-20T08:54:33Z</time>
      </trkpt>
      <trkpt lat="45.61648" lon="4.82967">
        <ele>261</ele>
        <time>2005-03-20T08:54:38Z</time>
      </trkpt>
      <trkpt lat="45.61772" lon="4.82924">
        <ele>252</ele>
        <time>2005-03-20T08:54:52Z</time>
      </trkpt>
      <trkpt lat="45.61869" lon="4.82903">
        <ele>247</ele>
        <time>2005-03-20T08:55:03Z</time>
      </trkpt>
      <trkpt lat="45.6189" lon="4.82903">
        <ele>243</ele>
        <time>2005-03-20T08:55:05Z</time>
      </trkpt>
      <trkpt lat="45.6195" lon="4.82907">
        <ele>235</ele>
        <time>2005-03-20T08:55:10Z</time>
      </trkpt>
      <trkpt lat="45.61991" lon="4.82907">
        <ele>229</ele>
        <time>2005-03-20T08:55:13Z</time>
      </trkpt>
      <trkpt lat="45.62006" lon="4.82909">
        <ele>226</ele>
        <time>2005-03-20T08:55:14Z</time>
      </trkpt>
      <trkpt lat="45.62047" lon="4.82911">
        <ele>222</ele>
        <time>2005-03-20T08:55:17Z</time>
      </trkpt>
      <trkpt lat="45.62118" lon="4.82911">
        <ele>220</ele>
        <time>2005-03-20T08:55:22Z</time>
      </trkpt>
      <trkpt lat="45.62255" lon="4.82877">
        <ele>219</ele>
        <time>2005-03-20T08:55:34Z</time>
      </trkpt>
      <trkpt lat="45.62371" lon="4.82843">
        <ele>220</ele>
        <time>2005-03-20T08:55:48Z</time>
      </trkpt>
      <trkpt lat="45.6239" lon="4.82836">
        <ele>219</ele>
        <time>2005-03-20T08:55:51Z</time>
      </trkpt>
      <trkpt lat="45.62416" lon="4.82802">
        <ele>216</ele>
        <time>2005-03-20T08:55:56Z</time>
      </trkpt>
      <trkpt lat="45.62416" lon="4.82796">
        <ele>216</ele>
        <time>2005-03-20T08:55:57Z</time>
      </trkpt>
      <trkpt lat="45.62405" lon="4.8277">
        <ele>218</ele>
        <time>2005-03-20T08:55:59Z</time>
      </trkpt>
      <trkpt lat="45.62362" lon="4.82699">
        <ele>216</ele>
        <time>2005-03-20T08:56:13Z</time>
      </trkpt>
      <trkpt lat="45.6236" lon="4.82678">
        <ele>217</ele>
        <time>2005-03-20T08:56:31Z</time>
      </trkpt>
      <trkpt lat="45.6239" lon="4.82542">
        <ele>217</ele>
        <time>2005-03-20T08:56:46Z</time>
      </trkpt>
      <trkpt lat="45.62418" lon="4.82508">
        <ele>216</ele>
        <time>2005-03-20T08:56:57Z</time>
      </trkpt>
      <trkpt lat="45.62423" lon="4.82497">
        <ele>212</ele>
        <time>2005-03-20T08:57:03Z</time>
      </trkpt>
      <trkpt lat="45.62423" lon="4.82493">
        <ele>210</ele>
        <time>2005-03-20T08:57:05Z</time>
      </trkpt>
      <trkpt lat="45.62416" lon="4.82484">
        <ele>208</ele>
        <time>2005-03-20T08:57:07Z</time>
      </trkpt>
      <trkpt lat="45.62412" lon="4.82399">
        <ele>204</ele>
        <time>2005-03-20T08:57:13Z</time>
      </trkpt>
      <trkpt lat="45.62408" lon="4.82394">
        <ele>204</ele>
        <time>2005-03-20T08:57:15Z</time>
      </trkpt>
      <trkpt lat="45.62399" lon="4.82381">
        <ele>201</ele>
        <time>2005-03-20T08:57:18Z</time>
      </trkpt>
      <trkpt lat="45.62335" lon="4.82384">
        <ele>198</ele>
        <time>2005-03-20T08:57:27Z</time>
      </trkpt>
      <trkpt lat="45.62317" lon="4.82364">
        <ele>199</ele>
        <time>2005-03-20T08:57:32Z</time>
      </trkpt>
      <trkpt lat="45.62313" lon="4.82358">
        <ele>201</ele>
        <time>2005-03-20T08:57:35Z</time>
      </trkpt>
      <trkpt lat="45.62283" lon="4.82332">
        <ele>203</ele>
        <time>2005-03-20T08:57:50Z</time>
      </trkpt>
      <trkpt lat="45.62281" lon="4.82326">
        <ele>203</ele>
        <time>2005-03-20T08:58:11Z</time>
      </trkpt>
      <trkpt lat="45.62272" lon="4.82317">
        <ele>203</ele>
        <time>2005-03-20T08:58:31Z</time>
      </trkpt>
      <trkpt lat="45.62266" lon="4.82308">
        <ele>205</ele>
        <time>2005-03-20T08:58:46Z</time>
      </trkpt>
      <trkpt lat="45.62251" lon="4.82302">
        <ele>210</ele>
        <time>2005-03-20T08:58:58Z</time>
      </trkpt>
      <trkpt lat="45.62232" lon="4.823">
        <ele>214</ele>
        <time>2005-03-20T08:59:14Z</time>
      </trkpt>
      <trkpt lat="45.62225" lon="4.82302">
        <ele>217</ele>
        <time>2005-03-20T08:59:19Z</time>
      </trkpt>
      <trkpt lat="45.62204" lon="4.82336">
        <ele>218</ele>
        <time>2005-03-20T08:59:41Z</time>
      </trkpt>
      <trkpt lat="45.62206" lon="4.82341">
        <ele>217</ele>
        <time>2005-03-20T08:59:44Z</time>
      </trkpt>
      <trkpt lat="45.62193" lon="4.82351">
        <ele>217</ele>
        <time>2005-03-20T08:59:49Z</time>
      </trkpt>
      <trkpt lat="45.62189" lon="4.82358">
        <ele>219</ele>
        <time>2005-03-20T08:59:57Z</time>
      </trkpt>
      <trkpt lat="45.6218" lon="4.82366">
        <ele>218</ele>
        <time>2005-03-20T09:00:29Z</time>
      </trkpt>
      <trkpt lat="45.62178" lon="4.82371">
        <ele>218</ele>
        <time>2005-03-20T09:00:33Z</time>
      </trkpt>
      <trkpt lat="45.62144" lon="4.82396">
        <ele>220</ele>
        <time>2005-03-20T09:00:51Z</time>
      </trkpt>
      <trkpt lat="45.62084" lon="4.82429">
        <ele>222</ele>
        <time>2005-03-20T09:01:14Z</time>
      </trkpt>
      <trkpt lat="45.6206" lon="4.82373">
        <ele>221</ele>
        <time>2005-03-20T09:01:29Z</time>
      </trkpt>
      <trkpt lat="45.62043" lon="4.82257">
        <ele>222</ele>
        <time>2005-03-20T09:01:48Z</time>
      </trkpt>
      <trkpt lat="45.62021" lon="4.82225">
        <ele>222</ele>
        <time>2005-03-20T09:01:56Z</time>
      </trkpt>
      <trkpt lat="45.62017" lon="4.82186">
        <ele>217</ele>
        <time>2005-03-20T09:02:03Z</time>
      </trkpt>
      <trkpt lat="45.62019" lon="4.82175">
        <ele>217</ele>
        <time>2005-03-20T09:02:04Z</time>
      </trkpt>
      <trkpt lat="45.62026" lon="4.82156">
        <ele>215</ele>
        <time>2005-03-20T09:02:06Z</time>
      </trkpt>
      <trkpt lat="45.6203" lon="4.82148">
        <ele>214</ele>
        <time>2005-03-20T09:02:07Z</time>
      </trkpt>
      <trkpt lat="45.62041" lon="4.8213">
        <ele>212</ele>
        <time>2005-03-20T09:02:10Z</time>
      </trkpt>
      <trkpt lat="45.62026" lon="4.82107">
        <ele>212</ele>
        <time>2005-03-20T09:02:15Z</time>
      </trkpt>
      <trkpt lat="45.62004" lon="4.82096">
        <ele>216</ele>
        <time>2005-03-20T09:02:27Z</time>
      </trkpt>
      <trkpt lat="45.61976" lon="4.82077">
        <ele>219</ele>
        <time>2005-03-20T09:02:44Z</time>
      </trkpt>
      <trkpt lat="45.61957" lon="4.82032">
        <ele>222</ele>
        <time>2005-03-20T09:03:01Z</time>
      </trkpt>
      <trkpt lat="45.61942" lon="4.81993">
        <ele>221</ele>
        <time>2005-03-20T09:03:17Z</time>
      </trkpt>
      <trkpt lat="45.61899" lon="4.81935">
        <ele>221</ele>
        <time>2005-03-20T09:03:38Z</time>
      </trkpt>
      <trkpt lat="45.6185" lon="4.81881">
        <ele>218</ele>
        <time>2005-03-20T09:03:53Z</time>
      </trkpt>
      <trkpt lat="45.61835" lon="4.81881">
        <ele>220</ele>
        <time>2005-03-20T09:03:59Z</time>
      </trkpt>
      <trkpt lat="45.61835" lon="4.81884">
        <ele>220</ele>
        <time>2005-03-20T09:04:00Z</time>
      </trkpt>
      <trkpt lat="45.61817" lon="4.81933">
        <ele>227</ele>
        <time>2005-03-20T09:04:22Z</time>
      </trkpt>
      <trkpt lat="45.6176" lon="4.81914">
        <ele>226</ele>
        <time>2005-03-20T09:04:41Z</time>
      </trkpt>
      <trkpt lat="45.61753" lon="4.81972">
        <ele>223</ele>
        <time>2005-03-20T09:04:52Z</time>
      </trkpt>
      <trkpt lat="45.61736" lon="4.8198">
        <ele>220</ele>
        <time>2005-03-20T09:04:56Z</time>
      </trkpt>
      <trkpt lat="45.61729" lon="4.8198">
        <ele>219</ele>
        <time>2005-03-20T09:04:57Z</time>
      </trkpt>
      <trkpt lat="45.61714" lon="4.81984">
        <ele>219</ele>
        <time>2005-03-20T09:05:01Z</time>
      </trkpt>
      <trkpt lat="45.6171" lon="4.81987">
        <ele>218</ele>
        <time>2005-03-20T09:05:03Z</time>
      </trkpt>
      <trkpt lat="45.61687" lon="4.81993">
        <ele>214</ele>
        <time>2005-03-20T09:05:15Z</time>
      </trkpt>
      <trkpt lat="45.61684" lon="4.81995">
        <ele>214</ele>
        <time>2005-03-20T09:05:16Z</time>
      </trkpt>
      <trkpt lat="45.61667" lon="4.82021">
        <ele>210</ele>
        <time>2005-03-20T09:05:22Z</time>
      </trkpt>
      <trkpt lat="45.61657" lon="4.82032">
        <ele>211</ele>
        <time>2005-03-20T09:05:25Z</time>
      </trkpt>
      <trkpt lat="45.61648" lon="4.82027">
        <ele>213</ele>
        <time>2005-03-20T09:05:29Z</time>
      </trkpt>
      <trkpt lat="45.61648" lon="4.82017">
        <ele>212</ele>
        <time>2005-03-20T09:05:35Z</time>
      </trkpt>
      <trkpt lat="45.61661" lon="4.81965">
        <ele>208</ele>
        <time>2005-03-20T09:05:45Z</time>
      </trkpt>
      <trkpt lat="45.61644" lon="4.81924">
        <ele>207</ele>
        <time>2005-03-20T09:05:52Z</time>
      </trkpt>
      <trkpt lat="45.61635" lon="4.81909">
        <ele>206</ele>
        <time>2005-03-20T09:05:54Z</time>
      </trkpt>
      <trkpt lat="45.61607" lon="4.81826">
        <ele>205</ele>
        <time>2005-03-20T09:06:08Z</time>
      </trkpt>
      <trkpt lat="45.61601" lon="4.81802">
        <ele>205</ele>
        <time>2005-03-20T09:06:12Z</time>
      </trkpt>
      <trkpt lat="45.61599" lon="4.81778">
        <ele>205</ele>
        <time>2005-03-20T09:06:15Z</time>
      </trkpt>
      <trkpt lat="45.61594" lon="4.81744">
        <ele>203</ele>
        <time>2005-03-20T09:06:19Z</time>
      </trkpt>
      <trkpt lat="45.61588" lon="4.81673">
        <ele>200</ele>
        <time>2005-03-20T09:06:29Z</time>
      </trkpt>
      <trkpt lat="45.6159" lon="4.81665">
        <ele>197</ele>
        <time>2005-03-20T09:06:40Z</time>
      </trkpt>
      <trkpt lat="45.6159" lon="4.8166">
        <ele>196</ele>
        <time>2005-03-20T09:06:41Z</time>
      </trkpt>
      <trkpt lat="45.61551" lon="4.81624">
        <ele>194</ele>
        <time>2005-03-20T09:06:49Z</time>
      </trkpt>
      <trkpt lat="45.61526" lon="4.81602">
        <ele>193</ele>
        <time>2005-03-20T09:06:55Z</time>
      </trkpt>
      <trkpt lat="45.61511" lon="4.81594">
        <ele>195</ele>
        <time>2005-03-20T09:06:59Z</time>
      </trkpt>
      <trkpt lat="45.61478" lon="4.81596">
        <ele>199</ele>
        <time>2005-03-20T09:07:09Z</time>
      </trkpt>
      <trkpt lat="45.6144" lon="4.81592">
        <ele>203</ele>
        <time>2005-03-20T09:07:28Z</time>
      </trkpt>
      <trkpt lat="45.61395" lon="4.8156">
        <ele>205</ele>
        <time>2005-03-20T09:07:53Z</time>
      </trkpt>
      <trkpt lat="45.61358" lon="4.81542">
        <ele>208</ele>
        <time>2005-03-20T09:08:14Z</time>
      </trkpt>
      <trkpt lat="45.61328" lon="4.81519">
        <ele>212</ele>
        <time>2005-03-20T09:08:37Z</time>
      </trkpt>
      <trkpt lat="45.61311" lon="4.81514">
        <ele>214</ele>
        <time>2005-03-20T09:08:46Z</time>
      </trkpt>
      <trkpt lat="45.61281" lon="4.81499">
        <ele>217</ele>
        <time>2005-03-20T09:09:00Z</time>
      </trkpt>
      <trkpt lat="45.61281" lon="4.81506">
        <ele>217</ele>
        <time>2005-03-20T09:09:05Z</time>
      </trkpt>
      <trkpt lat="45.6129" lon="4.81523">
        <ele>219</ele>
        <time>2005-03-20T09:09:17Z</time>
      </trkpt>
      <trkpt lat="45.61283" lon="4.81527">
        <ele>220</ele>
        <time>2005-03-20T09:09:22Z</time>
      </trkpt>
      <trkpt lat="45.61277" lon="4.81527">
        <ele>222</ele>
        <time>2005-03-20T09:09:28Z</time>
      </trkpt>
      <trkpt lat="45.61266" lon="4.81525">
        <ele>224</ele>
        <time>2005-03-20T09:09:36Z</time>
      </trkpt>
      <trkpt lat="45.6126" lon="4.81536">
        <ele>227</ele>
        <time>2005-03-20T09:09:45Z</time>
      </trkpt>
      <trkpt lat="45.61287" lon="4.8156">
        <ele>229</ele>
        <time>2005-03-20T09:10:06Z</time>
      </trkpt>
      <trkpt lat="45.61305" lon="4.81602">
        <ele>232</ele>
        <time>2005-03-20T09:10:25Z</time>
      </trkpt>
      <trkpt lat="45.61294" lon="4.81613">
        <ele>234</ele>
        <time>2005-03-20T09:10:34Z</time>
      </trkpt>
      <trkpt lat="45.61283" lon="4.81641">
        <ele>237</ele>
        <time>2005-03-20T09:10:48Z</time>
      </trkpt>
      <trkpt lat="45.61264" lon="4.81675">
        <ele>240</ele>
        <time>2005-03-20T09:11:08Z</time>
      </trkpt>
      <trkpt lat="45.61262" lon="4.81744">
        <ele>242</ele>
        <time>2005-03-20T09:11:31Z</time>
      </trkpt>
      <trkpt lat="45.61262" lon="4.81828">
        <ele>243</ele>
        <time>2005-03-20T09:11:49Z</time>
      </trkpt>
      <trkpt lat="45.61249" lon="4.81911">
        <ele>246</ele>
        <time>2005-03-20T09:12:08Z</time>
      </trkpt>
      <trkpt lat="45.61221" lon="4.81991">
        <ele>248</ele>
        <time>2005-03-20T09:12:28Z</time>
      </trkpt>
      <trkpt lat="45.61219" lon="4.82036">
        <ele>248</ele>
        <time>2005-03-20T09:12:39Z</time>
      </trkpt>
      <trkpt lat="45.61225" lon="4.82064">
        <ele>249</ele>
        <time>2005-03-20T09:12:46Z</time>
      </trkpt>
      <trkpt lat="45.61219" lon="4.82077">
        <ele>249</ele>
        <time>2005-03-20T09:12:50Z</time>
      </trkpt>
      <trkpt lat="45.61169" lon="4.82115">
        <ele>252</ele>
        <time>2005-03-20T09:13:09Z</time>
      </trkpt>
      <trkpt lat="45.61152" lon="4.82139">
        <ele>255</ele>
        <time>2005-03-20T09:13:26Z</time>
      </trkpt>
      <trkpt lat="45.61148" lon="4.82148">
        <ele>257</ele>
        <time>2005-03-20T09:13:31Z</time>
      </trkpt>
      <trkpt lat="45.61131" lon="4.82175">
        <ele>260</ele>
        <time>2005-03-20T09:13:49Z</time>
      </trkpt>
      <trkpt lat="45.61114" lon="4.82193">
        <ele>263</ele>
        <time>2005-03-20T09:14:04Z</time>
      </trkpt>
      <trkpt lat="45.61081" lon="4.82214">
        <ele>263</ele>
        <time>2005-03-20T09:14:18Z</time>
      </trkpt>
      <trkpt lat="45.61051" lon="4.82242">
        <ele>262</ele>
        <time>2005-03-20T09:14:31Z</time>
      </trkpt>
      <trkpt lat="45.61045" lon="4.82233">
        <ele>258</ele>
        <time>2005-03-20T09:14:35Z</time>
      </trkpt>
      <trkpt lat="45.61039" lon="4.82201">
        <ele>256</ele>
        <time>2005-03-20T09:14:42Z</time>
      </trkpt>
      <trkpt lat="45.61036" lon="4.82182">
        <ele>255</ele>
        <time>2005-03-20T09:14:46Z</time>
      </trkpt>
      <trkpt lat="45.61026" lon="4.82167">
        <ele>254</ele>
        <time>2005-03-20T09:14:50Z</time>
      </trkpt>
      <trkpt lat="45.61024" lon="4.82163">
        <ele>254</ele>
        <time>2005-03-20T09:14:51Z</time>
      </trkpt>
      <trkpt lat="45.61015" lon="4.82169">
        <ele>255</ele>
        <time>2005-03-20T09:14:55Z</time>
      </trkpt>
      <trkpt lat="45.60987" lon="4.82195">
        <ele>258</ele>
        <time>2005-03-20T09:15:09Z</time>
      </trkpt>
      <trkpt lat="45.60951" lon="4.82244">
        <ele>257</ele>
        <time>2005-03-20T09:15:30Z</time>
      </trkpt>
      <trkpt lat="45.60942" lon="4.82261">
        <ele>255</ele>
        <time>2005-03-20T09:15:33Z</time>
      </trkpt>
      <trkpt lat="45.60929" lon="4.82278">
        <ele>253</ele>
        <time>2005-03-20T09:15:36Z</time>
      </trkpt>
      <trkpt lat="45.60925" lon="4.8227">
        <ele>253</ele>
        <time>2005-03-20T09:15:38Z</time>
      </trkpt>
      <trkpt lat="45.60873" lon="4.82201">
        <ele>249</ele>
        <time>2005-03-20T09:15:52Z</time>
      </trkpt>
      <trkpt lat="45.60863" lon="4.82184">
        <ele>248</ele>
        <time>2005-03-20T09:15:57Z</time>
      </trkpt>
      <trkpt lat="45.60843" lon="4.82156">
        <ele>249</ele>
        <time>2005-03-20T09:16:00Z</time>
      </trkpt>
      <trkpt lat="45.60828" lon="4.82145">
        <ele>248</ele>
        <time>2005-03-20T09:16:03Z</time>
      </trkpt>
      <trkpt lat="45.60803" lon="4.82139">
        <ele>246</ele>
        <time>2005-03-20T09:16:08Z</time>
      </trkpt>
      <trkpt lat="45.60764" lon="4.82132">
        <ele>244</ele>
        <time>2005-03-20T09:16:15Z</time>
      </trkpt>
      <trkpt lat="45.60751" lon="4.82128">
        <ele>244</ele>
        <time>2005-03-20T09:16:17Z</time>
      </trkpt>
      <trkpt lat="45.60723" lon="4.82124">
        <ele>242</ele>
        <time>2005-03-20T09:16:21Z</time>
      </trkpt>
      <trkpt lat="45.60633" lon="4.82107">
        <ele>239</ele>
        <time>2005-03-20T09:16:34Z</time>
      </trkpt>
      <trkpt lat="45.60594" lon="4.82109">
        <ele>238</ele>
        <time>2005-03-20T09:16:39Z</time>
      </trkpt>
      <trkpt lat="45.60545" lon="4.82113">
        <ele>236</ele>
        <time>2005-03-20T09:16:45Z</time>
      </trkpt>
      <trkpt lat="45.60511" lon="4.821">
        <ele>237</ele>
        <time>2005-03-20T09:16:52Z</time>
      </trkpt>
      <trkpt lat="45.60479" lon="4.82083">
        <ele>236</ele>
        <time>2005-03-20T09:17:00Z</time>
      </trkpt>
      <trkpt lat="45.60429" lon="4.82094">
        <ele>234</ele>
        <time>2005-03-20T09:17:08Z</time>
      </trkpt>
      <trkpt lat="45.60418" lon="4.82169">
        <ele>230</ele>
        <time>2005-03-20T09:17:19Z</time>
      </trkpt>
      <trkpt lat="45.60421" lon="4.82175">
        <ele>229</ele>
        <time>2005-03-20T09:17:21Z</time>
      </trkpt>
      <trkpt lat="45.60444" lon="4.82293">
        <ele>229</ele>
        <time>2005-03-20T09:17:37Z</time>
      </trkpt>
      <trkpt lat="45.60459" lon="4.82373">
        <ele>228</ele>
        <time>2005-03-20T09:17:48Z</time>
      </trkpt>
      <trkpt lat="45.60463" lon="4.82388">
        <ele>229</ele>
        <time>2005-03-20T09:17:50Z</time>
      </trkpt>
      <trkpt lat="45.60451" lon="4.82416">
        <ele>229</ele>
        <time>2005-03-20T09:17:55Z</time>
      </trkpt>
      <trkpt lat="45.60354" lon="4.82454">
        <ele>229</ele>
        <time>2005-03-20T09:18:12Z</time>
      </trkpt>
      <trkpt lat="45.60294" lon="4.82476">
        <ele>232</ele>
        <time>2005-03-20T09:18:24Z</time>
      </trkpt>
      <trkpt lat="45.6029" lon="4.82476">
        <ele>233</ele>
        <time>2005-03-20T09:18:25Z</time>
      </trkpt>
      <trkpt lat="45.60249" lon="4.82497">
        <ele>237</ele>
        <time>2005-03-20T09:18:38Z</time>
      </trkpt>
      <trkpt lat="45.60236" lon="4.82506">
        <ele>240</ele>
        <time>2005-03-20T09:18:50Z</time>
      </trkpt>
      <trkpt lat="45.60174" lon="4.82499">
        <ele>244</ele>
        <time>2005-03-20T09:19:08Z</time>
      </trkpt>
      <trkpt lat="45.60129" lon="4.82506">
        <ele>247</ele>
        <time>2005-03-20T09:19:24Z</time>
      </trkpt>
      <trkpt lat="45.59983" lon="4.82559">
        <ele>248</ele>
        <time>2005-03-20T09:20:02Z</time>
      </trkpt>
      <trkpt lat="45.59906" lon="4.8259">
        <ele>248</ele>
        <time>2005-03-20T09:20:22Z</time>
      </trkpt>
      <trkpt lat="45.5988" lon="4.82598">
        <ele>244</ele>
        <time>2005-03-20T09:20:26Z</time>
      </trkpt>
      <trkpt lat="45.59858" lon="4.82607">
        <ele>245</ele>
        <time>2005-03-20T09:20:31Z</time>
      </trkpt>
      <trkpt lat="45.59826" lon="4.82502">
        <ele>242</ele>
        <time>2005-03-20T09:20:45Z</time>
      </trkpt>
      <trkpt lat="45.59809" lon="4.82403">
        <ele>242</ele>
        <time>2005-03-20T09:20:56Z</time>
      </trkpt>
      <trkpt lat="45.598" lon="4.82343">
        <ele>242</ele>
        <time>2005-03-20T09:21:10Z</time>
      </trkpt>
      <trkpt lat="45.59796" lon="4.82326">
        <ele>236</ele>
        <time>2005-03-20T09:21:13Z</time>
      </trkpt>
      <trkpt lat="45.59792" lon="4.82287">
        <ele>231</ele>
        <time>2005-03-20T09:21:16Z</time>
      </trkpt>
      <trkpt lat="45.59777" lon="4.82218">
        <ele>230</ele>
        <time>2005-03-20T09:21:21Z</time>
      </trkpt>
      <trkpt lat="45.59773" lon="4.82193">
        <ele>232</ele>
        <time>2005-03-20T09:21:24Z</time>
      </trkpt>
      <trkpt lat="45.59762" lon="4.82195">
        <ele>233</ele>
        <time>2005-03-20T09:21:26Z</time>
      </trkpt>
      <trkpt lat="45.59685" lon="4.8224">
        <ele>233</ele>
        <time>2005-03-20T09:21:46Z</time>
      </trkpt>
      <trkpt lat="45.59665" lon="4.82257">
        <ele>233</ele>
        <time>2005-03-20T09:21:51Z</time>
      </trkpt>
      <trkpt lat="45.59633" lon="4.82304">
        <ele>238</ele>
        <time>2005-03-20T09:22:03Z</time>
      </trkpt>
      <trkpt lat="45.59631" lon="4.82308">
        <ele>238</ele>
        <time>2005-03-20T09:22:04Z</time>
      </trkpt>
      <trkpt lat="45.59594" lon="4.82319">
        <ele>241</ele>
        <time>2005-03-20T09:22:16Z</time>
      </trkpt>
      <trkpt lat="45.59592" lon="4.82321">
        <ele>241</ele>
        <time>2005-03-20T09:22:17Z</time>
      </trkpt>
      <trkpt lat="45.59526" lon="4.82349">
        <ele>241</ele>
        <time>2005-03-20T09:22:34Z</time>
      </trkpt>
      <trkpt lat="45.59491" lon="4.8236">
        <ele>242</ele>
        <time>2005-03-20T09:22:42Z</time>
      </trkpt>
      <trkpt lat="45.59457" lon="4.8236">
        <ele>243</ele>
        <time>2005-03-20T09:22:50Z</time>
      </trkpt>
      <trkpt lat="45.59414" lon="4.82371">
        <ele>246</ele>
        <time>2005-03-20T09:23:04Z</time>
      </trkpt>
      <trkpt lat="45.59346" lon="4.82414">
        <ele>247</ele>
        <time>2005-03-20T09:23:27Z</time>
      </trkpt>
      <trkpt lat="45.59305" lon="4.82463">
        <ele>244</ele>
        <time>2005-03-20T09:23:37Z</time>
      </trkpt>
      <trkpt lat="45.5929" lon="4.82502">
        <ele>242</ele>
        <time>2005-03-20T09:23:42Z</time>
      </trkpt>
      <trkpt lat="45.59285" lon="4.82519">
        <ele>241</ele>
        <time>2005-03-20T09:23:44Z</time>
      </trkpt>
      <trkpt lat="45.59253" lon="4.826">
        <ele>241</ele>
        <time>2005-03-20T09:23:55Z</time>
      </trkpt>
      <trkpt lat="45.59234" lon="4.82594">
        <ele>240</ele>
        <time>2005-03-20T09:24:01Z</time>
      </trkpt>
      <trkpt lat="45.59208" lon="4.82459">
        <ele>240</ele>
        <time>2005-03-20T09:24:19Z</time>
      </trkpt>
      <trkpt lat="45.5921" lon="4.82347">
        <ele>236</ele>
        <time>2005-03-20T09:24:32Z</time>
      </trkpt>
      <trkpt lat="45.5924" lon="4.82225">
        <ele>237</ele>
        <time>2005-03-20T09:24:47Z</time>
      </trkpt>
      <trkpt lat="45.59219" lon="4.82195">
        <ele>238</ele>
        <time>2005-03-20T09:24:52Z</time>
      </trkpt>
      <trkpt lat="45.59161" lon="4.82171">
        <ele>246</ele>
        <time>2005-03-20T09:25:11Z</time>
      </trkpt>
      <trkpt lat="45.59142" lon="4.82132">
        <ele>245</ele>
        <time>2005-03-20T09:25:24Z</time>
      </trkpt>
      <trkpt lat="45.59142" lon="4.82051">
        <ele>244</ele>
        <time>2005-03-20T09:25:38Z</time>
      </trkpt>
      <trkpt lat="45.5915" lon="4.82017">
        <ele>242</ele>
        <time>2005-03-20T09:25:43Z</time>
      </trkpt>
      <trkpt lat="45.59167" lon="4.81978">
        <ele>240</ele>
        <time>2005-03-20T09:25:48Z</time>
      </trkpt>
      <trkpt lat="45.59174" lon="4.81909">
        <ele>239</ele>
        <time>2005-03-20T09:25:55Z</time>
      </trkpt>
      <trkpt lat="45.59172" lon="4.81894">
        <ele>240</ele>
        <time>2005-03-20T09:25:57Z</time>
      </trkpt>
      <trkpt lat="45.59167" lon="4.81875">
        <ele>241</ele>
        <time>2005-03-20T09:26:00Z</time>
      </trkpt>
      <trkpt lat="45.59122" lon="4.81725">
        <ele>240</ele>
        <time>2005-03-20T09:26:19Z</time>
      </trkpt>
      <trkpt lat="45.59118" lon="4.81725">
        <ele>240</ele>
        <time>2005-03-20T09:26:20Z</time>
      </trkpt>
      <trkpt lat="45.59092" lon="4.8172">
        <ele>240</ele>
        <time>2005-03-20T09:26:26Z</time>
      </trkpt>
      <trkpt lat="45.59015" lon="4.81703">
        <ele>241</ele>
        <time>2005-03-20T09:26:45Z</time>
      </trkpt>
      <trkpt lat="45.58856" lon="4.81703">
        <ele>237</ele>
        <time>2005-03-20T09:27:15Z</time>
      </trkpt>
      <trkpt lat="45.58818" lon="4.81701">
        <ele>235</ele>
        <time>2005-03-20T09:27:21Z</time>
      </trkpt>
      <trkpt lat="45.58796" lon="4.81731">
        <ele>236</ele>
        <time>2005-03-20T09:27:26Z</time>
      </trkpt>
      <trkpt lat="45.58798" lon="4.81755">
        <ele>237</ele>
        <time>2005-03-20T09:27:29Z</time>
      </trkpt>
      <trkpt lat="45.58805" lon="4.81914">
        <ele>239</ele>
        <time>2005-03-20T09:27:51Z</time>
      </trkpt>
      <trkpt lat="45.58803" lon="4.81924">
        <ele>240</ele>
        <time>2005-03-20T09:27:53Z</time>
      </trkpt>
      <trkpt lat="45.58794" lon="4.81929">
        <ele>241</ele>
        <time>2005-03-20T09:27:57Z</time>
      </trkpt>
      <trkpt lat="45.58725" lon="4.81873">
        <ele>241</ele>
        <time>2005-03-20T09:28:19Z</time>
      </trkpt>
      <trkpt lat="45.58695" lon="4.81873">
        <ele>240</ele>
        <time>2005-03-20T09:28:25Z</time>
      </trkpt>
      <trkpt lat="45.58635" lon="4.81884">
        <ele>237</ele>
        <time>2005-03-20T09:28:36Z</time>
      </trkpt>
      <trkpt lat="45.58614" lon="4.81903">
        <ele>233</ele>
        <time>2005-03-20T09:28:40Z</time>
      </trkpt>
      <trkpt lat="45.5861" lon="4.81909">
        <ele>233</ele>
        <time>2005-03-20T09:28:41Z</time>
      </trkpt>
      <trkpt lat="45.5859" lon="4.81931">
        <ele>230</ele>
        <time>2005-03-20T09:28:44Z</time>
      </trkpt>
      <trkpt lat="45.58554" lon="4.8192">
        <ele>227</ele>
        <time>2005-03-20T09:28:52Z</time>
      </trkpt>
      <trkpt lat="45.58532" lon="4.81892">
        <ele>230</ele>
        <time>2005-03-20T09:28:57Z</time>
      </trkpt>
      <trkpt lat="45.58502" lon="4.8186">
        <ele>232</ele>
        <time>2005-03-20T09:29:05Z</time>
      </trkpt>
      <trkpt lat="45.58476" lon="4.8183">
        <ele>236</ele>
        <time>2005-03-20T09:29:15Z</time>
      </trkpt>
      <trkpt lat="45.58423" lon="4.81796">
        <ele>238</ele>
        <time>2005-03-20T09:29:32Z</time>
      </trkpt>
      <trkpt lat="45.58352" lon="4.81785">
        <ele>241</ele>
        <time>2005-03-20T09:29:52Z</time>
      </trkpt>
      <trkpt lat="45.58328" lon="4.81854">
        <ele>247</ele>
        <time>2005-03-20T09:30:13Z</time>
      </trkpt>
      <trkpt lat="45.58313" lon="4.81922">
        <ele>250</ele>
        <time>2005-03-20T09:30:35Z</time>
      </trkpt>
      <trkpt lat="45.58307" lon="4.81965">
        <ele>253</ele>
        <time>2005-03-20T09:30:50Z</time>
      </trkpt>
      <trkpt lat="45.58283" lon="4.81965">
        <ele>254</ele>
        <time>2005-03-20T09:30:56Z</time>
      </trkpt>
      <trkpt lat="45.5823" lon="4.81939">
        <ele>254</ele>
        <time>2005-03-20T09:31:13Z</time>
      </trkpt>
      <trkpt lat="45.58148" lon="4.81916">
        <ele>254</ele>
        <time>2005-03-20T09:31:32Z</time>
      </trkpt>
      <trkpt lat="45.5809" lon="4.81909">
        <ele>253</ele>
        <time>2005-03-20T09:31:45Z</time>
      </trkpt>
      <trkpt lat="45.58002" lon="4.81952">
        <ele>255</ele>
        <time>2005-03-20T09:32:07Z</time>
      </trkpt>
      <trkpt lat="45.57983" lon="4.81957">
        <ele>256</ele>
        <time>2005-03-20T09:32:18Z</time>
      </trkpt>
      <trkpt lat="45.5797" lon="4.81961">
        <ele>256</ele>
        <time>2005-03-20T09:32:48Z</time>
      </trkpt>
      <trkpt lat="45.5797" lon="4.81963">
        <ele>256</ele>
        <time>2005-03-20T09:32:49Z</time>
      </trkpt>
      <trkpt lat="45.57968" lon="4.81965">
        <ele>255</ele>
        <time>2005-03-20T09:33:09Z</time>
      </trkpt>
      <trkpt lat="45.57962" lon="4.81965">
        <ele>258</ele>
        <time>2005-03-20T09:37:27Z</time>
      </trkpt>
      <trkpt lat="45.57953" lon="4.81972">
        <ele>257</ele>
        <time>2005-03-20T09:37:40Z</time>
      </trkpt>
      <trkpt lat="45.57953" lon="4.81993">
        <ele>258</ele>
        <time>2005-03-20T09:37:58Z</time>
      </trkpt>
      <trkpt lat="45.57955" lon="4.82002">
        <ele>258</ele>
        <time>2005-03-20T09:38:03Z</time>
      </trkpt>
      <trkpt lat="45.57957" lon="4.82014">
        <ele>258</ele>
        <time>2005-03-20T09:38:08Z</time>
      </trkpt>
      <trkpt lat="45.57966" lon="4.82109">
        <ele>256</ele>
        <time>2005-03-20T09:38:26Z</time>
      </trkpt>
      <trkpt lat="45.5797" lon="4.82137">
        <ele>255</ele>
        <time>2005-03-20T09:38:31Z</time>
      </trkpt>
      <trkpt lat="45.5797" lon="4.82242">
        <ele>254</ele>
        <time>2005-03-20T09:38:52Z</time>
      </trkpt>
      <trkpt lat="45.57964" lon="4.82255">
        <ele>254</ele>
        <time>2005-03-20T09:39:02Z</time>
      </trkpt>
      <trkpt lat="45.57949" lon="4.8225">
        <ele>251</ele>
        <time>2005-03-20T09:39:09Z</time>
      </trkpt>
      <trkpt lat="45.57944" lon="4.82248">
        <ele>250</ele>
        <time>2005-03-20T09:39:10Z</time>
      </trkpt>
      <trkpt lat="45.57914" lon="4.82255">
        <ele>249</ele>
        <time>2005-03-20T09:39:15Z</time>
      </trkpt>
      <trkpt lat="45.57859" lon="4.82287">
        <ele>242</ele>
        <time>2005-03-20T09:39:31Z</time>
      </trkpt>
      <trkpt lat="45.57831" lon="4.82302">
        <ele>238</ele>
        <time>2005-03-20T09:39:36Z</time>
      </trkpt>
      <trkpt lat="45.57828" lon="4.82304">
        <ele>237</ele>
        <time>2005-03-20T09:39:38Z</time>
      </trkpt>
      <trkpt lat="45.57768" lon="4.82227">
        <ele>234</ele>
        <time>2005-03-20T09:39:42Z</time>
      </trkpt>
      <trkpt lat="45.57741" lon="4.82201">
        <ele>230</ele>
        <time>2005-03-20T09:39:46Z</time>
      </trkpt>
      <trkpt lat="45.57661" lon="4.82193">
        <ele>227</ele>
        <time>2005-03-20T09:40:02Z</time>
      </trkpt>
      <trkpt lat="45.57622" lon="4.82143">
        <ele>224</ele>
        <time>2005-03-20T09:40:09Z</time>
      </trkpt>
      <trkpt lat="45.57616" lon="4.82141">
        <ele>222</ele>
        <time>2005-03-20T09:40:11Z</time>
      </trkpt>
      <trkpt lat="45.57614" lon="4.82139">
        <ele>222</ele>
        <time>2005-03-20T09:40:12Z</time>
      </trkpt>
      <trkpt lat="45.57592" lon="4.8213">
        <ele>218</ele>
        <time>2005-03-20T09:40:23Z</time>
      </trkpt>
      <trkpt lat="45.57588" lon="4.8213">
        <ele>217</ele>
        <time>2005-03-20T09:40:25Z</time>
      </trkpt>
      <trkpt lat="45.57545" lon="4.82107">
        <ele>214</ele>
        <time>2005-03-20T09:40:48Z</time>
      </trkpt>
      <trkpt lat="45.57504" lon="4.82075">
        <ele>207</ele>
        <time>2005-03-20T09:41:09Z</time>
      </trkpt>
      <trkpt lat="45.575" lon="4.82072">
        <ele>207</ele>
        <time>2005-03-20T09:41:10Z</time>
      </trkpt>
      <trkpt lat="45.57487" lon="4.82062">
        <ele>208</ele>
        <time>2005-03-20T09:41:16Z</time>
      </trkpt>
      <trkpt lat="45.57444" lon="4.8206">
        <ele>211</ele>
        <time>2005-03-20T09:41:30Z</time>
      </trkpt>
      <trkpt lat="45.57442" lon="4.82004">
        <ele>207</ele>
        <time>2005-03-20T09:41:45Z</time>
      </trkpt>
      <trkpt lat="45.57432" lon="4.81929">
        <ele>202</ele>
        <time>2005-03-20T09:41:53Z</time>
      </trkpt>
      <trkpt lat="45.57427" lon="4.81905">
        <ele>200</ele>
        <time>2005-03-20T09:41:55Z</time>
      </trkpt>
      <trkpt lat="45.57419" lon="4.81873">
        <ele>199</ele>
        <time>2005-03-20T09:41:58Z</time>
      </trkpt>
      <trkpt lat="45.57414" lon="4.81787">
        <ele>196</ele>
        <time>2005-03-20T09:42:10Z</time>
      </trkpt>
      <trkpt lat="45.57414" lon="4.81791">
        <ele>195</ele>
        <time>2005-03-20T09:42:14Z</time>
      </trkpt>
      <trkpt lat="45.57408" lon="4.81813">
        <ele>190</ele>
        <time>2005-03-20T09:42:19Z</time>
      </trkpt>
      <trkpt lat="45.57408" lon="4.81817">
        <ele>186</ele>
        <time>2005-03-20T09:42:20Z</time>
      </trkpt>
      <trkpt lat="45.57412" lon="4.81841">
        <ele>183</ele>
        <time>2005-03-20T09:42:26Z</time>
      </trkpt>
      <trkpt lat="45.57412" lon="4.81847">
        <ele>181</ele>
        <time>2005-03-20T09:42:29Z</time>
      </trkpt>
      <trkpt lat="45.57412" lon="4.81841">
        <ele>178</ele>
        <time>2005-03-20T09:42:32Z</time>
      </trkpt>
      <trkpt lat="45.5741" lon="4.81836">
        <ele>176</ele>
        <time>2005-03-20T09:42:35Z</time>
      </trkpt>
      <trkpt lat="45.57408" lon="4.81823">
        <ele>173</ele>
        <time>2005-03-20T09:42:39Z</time>
      </trkpt>
      <trkpt lat="45.57318" lon="4.81699">
        <ele>169</ele>
        <time>2005-03-20T09:42:49Z</time>
      </trkpt>
      <trkpt lat="45.57313" lon="4.81772">
        <ele>167</ele>
        <time>2005-03-20T09:42:52Z</time>
      </trkpt>
      <trkpt lat="45.57271" lon="4.81781">
        <ele>164</ele>
        <time>2005-03-20T09:43:24Z</time>
      </trkpt>
      <trkpt lat="45.57236" lon="4.81755">
        <ele>161</ele>
        <time>2005-03-20T09:43:39Z</time>
      </trkpt>
      <trkpt lat="45.57223" lon="4.81746">
        <ele>156</ele>
        <time>2005-03-20T09:43:41Z</time>
      </trkpt>
      <trkpt lat="45.57219" lon="4.81742">
        <ele>156</ele>
        <time>2005-03-20T09:43:42Z</time>
      </trkpt>
      <trkpt lat="45.57193" lon="4.81725">
        <ele>156</ele>
        <time>2005-03-20T09:43:47Z</time>
      </trkpt>
      <trkpt lat="45.57174" lon="4.81766">
        <ele>156</ele>
        <time>2005-03-20T09:43:54Z</time>
      </trkpt>
      <trkpt lat="45.57163" lon="4.81783">
        <ele>156</ele>
        <time>2005-03-20T09:43:57Z</time>
      </trkpt>
      <trkpt lat="45.5714" lon="4.81817">
        <ele>156</ele>
        <time>2005-03-20T09:44:03Z</time>
      </trkpt>
      <trkpt lat="45.57026" lon="4.81881">
        <ele>158</ele>
        <time>2005-03-20T09:44:26Z</time>
      </trkpt>
      <trkpt lat="45.57009" lon="4.81888">
        <ele>159</ele>
        <time>2005-03-20T09:44:30Z</time>
      </trkpt>
      <trkpt lat="45.5694" lon="4.81918">
        <ele>160</ele>
        <time>2005-03-20T09:44:47Z</time>
      </trkpt>
      <trkpt lat="45.56914" lon="4.81922">
        <ele>159</ele>
        <time>2005-03-20T09:44:55Z</time>
      </trkpt>
      <trkpt lat="45.56871" lon="4.81914">
        <ele>157</ele>
        <time>2005-03-20T09:44:58Z</time>
      </trkpt>
      <trkpt lat="45.56822" lon="4.81901">
        <ele>154</ele>
        <time>2005-03-20T09:45:05Z</time>
      </trkpt>
      <trkpt lat="45.56809" lon="4.81892">
        <ele>153</ele>
        <time>2005-03-20T09:45:07Z</time>
      </trkpt>
      <trkpt lat="45.56734" lon="4.81802">
        <ele>152</ele>
        <time>2005-03-20T09:45:20Z</time>
      </trkpt>
      <trkpt lat="45.5673" lon="4.81796">
        <ele>152</ele>
        <time>2005-03-20T09:45:21Z</time>
      </trkpt>
      <trkpt lat="45.56678" lon="4.81729">
        <ele>153</ele>
        <time>2005-03-20T09:45:28Z</time>
      </trkpt>
      <trkpt lat="45.5665" lon="4.8174">
        <ele>158</ele>
        <time>2005-03-20T09:45:36Z</time>
      </trkpt>
      <trkpt lat="45.56648" lon="4.81742">
        <ele>157</ele>
        <time>2005-03-20T09:45:37Z</time>
      </trkpt>
      <trkpt lat="45.56522" lon="4.81811">
        <ele>165</ele>
        <time>2005-03-20T09:46:34Z</time>
      </trkpt>
      <trkpt lat="45.56472" lon="4.81836">
        <ele>167</ele>
        <time>2005-03-20T09:46:52Z</time>
      </trkpt>
      <trkpt lat="45.56408" lon="4.81877">
        <ele>165</ele>
        <time>2005-03-20T09:47:11Z</time>
      </trkpt>
      <trkpt lat="45.56365" lon="4.81909">
        <ele>168</ele>
        <time>2005-03-20T09:47:25Z</time>
      </trkpt>
      <trkpt lat="45.56311" lon="4.81963">
        <ele>170</ele>
        <time>2005-03-20T09:47:46Z</time>
      </trkpt>
      <trkpt lat="45.5626" lon="4.82019">
        <ele>167</ele>
        <time>2005-03-20T09:48:01Z</time>
      </trkpt>
      <trkpt lat="45.56236" lon="4.82042">
        <ele>165</ele>
        <time>2005-03-20T09:48:06Z</time>
      </trkpt>
      <trkpt lat="45.562" lon="4.82083">
        <ele>163</ele>
        <time>2005-03-20T09:48:14Z</time>
      </trkpt>
      <trkpt lat="45.56069" lon="4.82195">
        <ele>165</ele>
        <time>2005-03-20T09:48:58Z</time>
      </trkpt>
      <trkpt lat="45.56063" lon="4.82201">
        <ele>165</ele>
        <time>2005-03-20T09:49:00Z</time>
      </trkpt>
      <trkpt lat="45.56032" lon="4.82225">
        <ele>161</ele>
        <time>2005-03-20T09:49:07Z</time>
      </trkpt>
      <trkpt lat="45.55962" lon="4.82311">
        <ele>160</ele>
        <time>2005-03-20T09:49:25Z</time>
      </trkpt>
      <trkpt lat="45.55919" lon="4.82379">
        <ele>156</ele>
        <time>2005-03-20T09:49:37Z</time>
      </trkpt>
      <trkpt lat="45.55912" lon="4.82392">
        <ele>155</ele>
        <time>2005-03-20T09:49:39Z</time>
      </trkpt>
      <trkpt lat="45.55882" lon="4.82439">
        <ele>153</ele>
        <time>2005-03-20T09:49:50Z</time>
      </trkpt>
      <trkpt lat="45.55876" lon="4.82448">
        <ele>153</ele>
        <time>2005-03-20T09:49:52Z</time>
      </trkpt>
      <trkpt lat="45.55837" lon="4.82506">
        <ele>153</ele>
        <time>2005-03-20T09:50:03Z</time>
      </trkpt>
      <trkpt lat="45.55805" lon="4.82669">
        <ele>153</ele>
        <time>2005-03-20T09:50:25Z</time>
      </trkpt>
      <trkpt lat="45.55741" lon="4.82789">
        <ele>151</ele>
        <time>2005-03-20T09:50:45Z</time>
      </trkpt>
      <trkpt lat="45.55666" lon="4.82896">
        <ele>153</ele>
        <time>2005-03-20T09:51:05Z</time>
      </trkpt>
      <trkpt lat="45.55657" lon="4.82907">
        <ele>152</ele>
        <time>2005-03-20T09:51:07Z</time>
      </trkpt>
      <trkpt lat="45.55633" lon="4.8295">
        <ele>153</ele>
        <time>2005-03-20T09:51:15Z</time>
      </trkpt>
      <trkpt lat="45.55651" lon="4.82967">
        <ele>155</ele>
        <time>2005-03-20T09:51:24Z</time>
      </trkpt>
      <trkpt lat="45.55666" lon="4.82961">
        <ele>158</ele>
        <time>2005-03-20T09:51:33Z</time>
      </trkpt>
      <trkpt lat="45.55696" lon="4.82931">
        <ele>161</ele>
        <time>2005-03-20T09:51:52Z</time>
      </trkpt>
      <trkpt lat="45.55719" lon="4.82888">
        <ele>163</ele>
        <time>2005-03-20T09:52:10Z</time>
      </trkpt>
      <trkpt lat="45.55741" lon="4.82864">
        <ele>166</ele>
        <time>2005-03-20T09:52:27Z</time>
      </trkpt>
      <trkpt lat="45.55766" lon="4.82849">
        <ele>169</ele>
        <time>2005-03-20T09:52:46Z</time>
      </trkpt>
      <trkpt lat="45.5579" lon="4.82834">
        <ele>172</ele>
        <time>2005-03-20T09:53:03Z</time>
      </trkpt>
      <trkpt lat="45.5582" lon="4.82806">
        <ele>177</ele>
        <time>2005-03-20T09:53:29Z</time>
      </trkpt>
      <trkpt lat="45.55841" lon="4.82796">
        <ele>179</ele>
        <time>2005-03-20T09:53:46Z</time>
      </trkpt>
      <trkpt lat="45.55844" lon="4.82793">
        <ele>180</ele>
        <time>2005-03-20T09:53:48Z</time>
      </trkpt>
      <trkpt lat="45.55857" lon="4.82759">
        <ele>183</ele>
        <time>2005-03-20T09:54:08Z</time>
      </trkpt>
      <trkpt lat="45.55869" lon="4.82738">
        <ele>186</ele>
        <time>2005-03-20T09:54:21Z</time>
      </trkpt>
      <trkpt lat="45.55872" lon="4.82731">
        <ele>187</ele>
        <time>2005-03-20T09:54:25Z</time>
      </trkpt>
      <trkpt lat="45.55878" lon="4.8272">
        <ele>189</ele>
        <time>2005-03-20T09:54:33Z</time>
      </trkpt>
      <trkpt lat="45.55899" lon="4.82705">
        <ele>191</ele>
        <time>2005-03-20T09:54:49Z</time>
      </trkpt>
      <trkpt lat="45.55923" lon="4.82667">
        <ele>195</ele>
        <time>2005-03-20T09:55:10Z</time>
      </trkpt>
      <trkpt lat="45.55955" lon="4.82594">
        <ele>198</ele>
        <time>2005-03-20T09:55:37Z</time>
      </trkpt>
      <trkpt lat="45.55987" lon="4.82572">
        <ele>201</ele>
        <time>2005-03-20T09:55:57Z</time>
      </trkpt>
      <trkpt lat="45.56026" lon="4.82572">
        <ele>204</ele>
        <time>2005-03-20T09:56:20Z</time>
      </trkpt>
      <trkpt lat="45.5603" lon="4.82575">
        <ele>205</ele>
        <time>2005-03-20T09:56:22Z</time>
      </trkpt>
      <trkpt lat="45.56037" lon="4.82575">
        <ele>206</ele>
        <time>2005-03-20T09:56:29Z</time>
      </trkpt>
      <trkpt lat="45.56043" lon="4.82557">
        <ele>210</ele>
        <time>2005-03-20T09:56:41Z</time>
      </trkpt>
      <trkpt lat="45.56047" lon="4.82551">
        <ele>210</ele>
        <time>2005-03-20T09:56:44Z</time>
      </trkpt>
      <trkpt lat="45.56063" lon="4.82536">
        <ele>214</ele>
        <time>2005-03-20T09:57:00Z</time>
      </trkpt>
      <trkpt lat="45.56114" lon="4.82514">
        <ele>210</ele>
        <time>2005-03-20T09:57:29Z</time>
      </trkpt>
      <trkpt lat="45.56123" lon="4.82517">
        <ele>209</ele>
        <time>2005-03-20T09:57:31Z</time>
      </trkpt>
      <trkpt lat="45.56144" lon="4.82532">
        <ele>207</ele>
        <time>2005-03-20T09:57:35Z</time>
      </trkpt>
      <trkpt lat="45.56157" lon="4.82542">
        <ele>206</ele>
        <time>2005-03-20T09:57:37Z</time>
      </trkpt>
      <trkpt lat="45.562" lon="4.82538">
        <ele>208</ele>
        <time>2005-03-20T09:57:44Z</time>
      </trkpt>
      <trkpt lat="45.56226" lon="4.82529">
        <ele>212</ele>
        <time>2005-03-20T09:57:59Z</time>
      </trkpt>
      <trkpt lat="45.56243" lon="4.82514">
        <ele>217</ele>
        <time>2005-03-20T09:58:14Z</time>
      </trkpt>
      <trkpt lat="45.56247" lon="4.82504">
        <ele>217</ele>
        <time>2005-03-20T09:58:21Z</time>
      </trkpt>
      <trkpt lat="45.56247" lon="4.82502">
        <ele>219</ele>
        <time>2005-03-20T09:58:23Z</time>
      </trkpt>
      <trkpt lat="45.56269" lon="4.8248">
        <ele>222</ele>
        <time>2005-03-20T09:58:46Z</time>
      </trkpt>
      <trkpt lat="45.56286" lon="4.82474">
        <ele>226</ele>
        <time>2005-03-20T09:59:03Z</time>
      </trkpt>
      <trkpt lat="45.56318" lon="4.82476">
        <ele>228</ele>
        <time>2005-03-20T09:59:24Z</time>
      </trkpt>
      <trkpt lat="45.56352" lon="4.82459">
        <ele>231</ele>
        <time>2005-03-20T09:59:48Z</time>
      </trkpt>
      <trkpt lat="45.56378" lon="4.82448">
        <ele>234</ele>
        <time>2005-03-20T10:00:01Z</time>
      </trkpt>
      <trkpt lat="45.5638" lon="4.82448">
        <ele>235</ele>
        <time>2005-03-20T10:00:03Z</time>
      </trkpt>
      <trkpt lat="45.56384" lon="4.82437">
        <ele>235</ele>
        <time>2005-03-20T10:00:08Z</time>
      </trkpt>
      <trkpt lat="45.56391" lon="4.82418">
        <ele>235</ele>
        <time>2005-03-20T10:00:15Z</time>
      </trkpt>
      <trkpt lat="45.56404" lon="4.82399">
        <ele>236</ele>
        <time>2005-03-20T10:00:22Z</time>
      </trkpt>
      <trkpt lat="45.56444" lon="4.82369">
        <ele>237</ele>
        <time>2005-03-20T10:00:36Z</time>
      </trkpt>
      <trkpt lat="45.56453" lon="4.82388">
        <ele>238</ele>
        <time>2005-03-20T10:00:42Z</time>
      </trkpt>
      <trkpt lat="45.56462" lon="4.82467">
        <ele>240</ele>
        <time>2005-03-20T10:01:02Z</time>
      </trkpt>
      <trkpt lat="45.56479" lon="4.82489">
        <ele>243</ele>
        <time>2005-03-20T10:01:11Z</time>
      </trkpt>
      <trkpt lat="45.56498" lon="4.82508">
        <ele>247</ele>
        <time>2005-03-20T10:01:22Z</time>
      </trkpt>
      <trkpt lat="45.56502" lon="4.82542">
        <ele>248</ele>
        <time>2005-03-20T10:01:35Z</time>
      </trkpt>
      <trkpt lat="45.56483" lon="4.82609">
        <ele>251</ele>
        <time>2005-03-20T10:01:58Z</time>
      </trkpt>
      <trkpt lat="45.56442" lon="4.82635">
        <ele>251</ele>
        <time>2005-03-20T10:02:15Z</time>
      </trkpt>
      <trkpt lat="45.56367" lon="4.82647">
        <ele>253</ele>
        <time>2005-03-20T10:02:41Z</time>
      </trkpt>
      <trkpt lat="45.56337" lon="4.8265">
        <ele>253</ele>
        <time>2005-03-20T10:02:49Z</time>
      </trkpt>
      <trkpt lat="45.56314" lon="4.82656">
        <ele>246</ele>
        <time>2005-03-20T10:03:04Z</time>
      </trkpt>
      <trkpt lat="45.56277" lon="4.82757">
        <ele>248</ele>
        <time>2005-03-20T10:03:11Z</time>
      </trkpt>
      <trkpt lat="45.56275" lon="4.82755">
        <ele>249</ele>
        <time>2005-03-20T10:03:12Z</time>
      </trkpt>
      <trkpt lat="45.56243" lon="4.82742">
        <ele>253</ele>
        <time>2005-03-20T10:03:25Z</time>
      </trkpt>
      <trkpt lat="45.56196" lon="4.82729">
        <ele>253</ele>
        <time>2005-03-20T10:03:44Z</time>
      </trkpt>
      <trkpt lat="45.56185" lon="4.82731">
        <ele>252</ele>
        <time>2005-03-20T10:03:47Z</time>
      </trkpt>
      <trkpt lat="45.56178" lon="4.82776">
        <ele>252</ele>
        <time>2005-03-20T10:03:54Z</time>
      </trkpt>
      <trkpt lat="45.56181" lon="4.82787">
        <ele>252</ele>
        <time>2005-03-20T10:03:56Z</time>
      </trkpt>
      <trkpt lat="45.56178" lon="4.82823">
        <ele>254</ele>
        <time>2005-03-20T10:04:08Z</time>
      </trkpt>
      <trkpt lat="45.56185" lon="4.82858">
        <ele>257</ele>
        <time>2005-03-20T10:04:24Z</time>
      </trkpt>
      <trkpt lat="45.56191" lon="4.82877">
        <ele>260</ele>
        <time>2005-03-20T10:04:33Z</time>
      </trkpt>
      <trkpt lat="45.56193" lon="4.82892">
        <ele>261</ele>
        <time>2005-03-20T10:04:42Z</time>
      </trkpt>
      <trkpt lat="45.56196" lon="4.82899">
        <ele>262</ele>
        <time>2005-03-20T10:04:47Z</time>
      </trkpt>
      <trkpt lat="45.56193" lon="4.82935">
        <ele>265</ele>
        <time>2005-03-20T10:05:06Z</time>
      </trkpt>
      <trkpt lat="45.56191" lon="4.82939">
        <ele>266</ele>
        <time>2005-03-20T10:05:09Z</time>
      </trkpt>
      <trkpt lat="45.5615" lon="4.82937">
        <ele>263</ele>
        <time>2005-03-20T10:05:24Z</time>
      </trkpt>
      <trkpt lat="45.56118" lon="4.82946">
        <ele>261</ele>
        <time>2005-03-20T10:05:31Z</time>
      </trkpt>
      <trkpt lat="45.56086" lon="4.82961">
        <ele>261</ele>
        <time>2005-03-20T10:05:38Z</time>
      </trkpt>
      <trkpt lat="45.5608" lon="4.82969">
        <ele>261</ele>
        <time>2005-03-20T10:05:40Z</time>
      </trkpt>
      <trkpt lat="45.56069" lon="4.8298">
        <ele>260</ele>
        <time>2005-03-20T10:05:43Z</time>
      </trkpt>
      <trkpt lat="45.56043" lon="4.82987">
        <ele>259</ele>
        <time>2005-03-20T10:05:48Z</time>
      </trkpt>
      <trkpt lat="45.56002" lon="4.83036">
        <ele>256</ele>
        <time>2005-03-20T10:06:01Z</time>
      </trkpt>
      <trkpt lat="45.55998" lon="4.83042">
        <ele>256</ele>
        <time>2005-03-20T10:06:02Z</time>
      </trkpt>
      <trkpt lat="45.5599" lon="4.83064">
        <ele>254</ele>
        <time>2005-03-20T10:06:05Z</time>
      </trkpt>
      <trkpt lat="45.5599" lon="4.83081">
        <ele>253</ele>
        <time>2005-03-20T10:06:07Z</time>
      </trkpt>
      <trkpt lat="45.55983" lon="4.83107">
        <ele>252</ele>
        <time>2005-03-20T10:06:13Z</time>
      </trkpt>
      <trkpt lat="45.55972" lon="4.83141">
        <ele>250</ele>
        <time>2005-03-20T10:06:21Z</time>
      </trkpt>
      <trkpt lat="45.55981" lon="4.8315">
        <ele>251</ele>
        <time>2005-03-20T10:06:25Z</time>
      </trkpt>
      <trkpt lat="45.55996" lon="4.83162">
        <ele>252</ele>
        <time>2005-03-20T10:06:36Z</time>
      </trkpt>
      <trkpt lat="45.55996" lon="4.8316">
        <ele>254</ele>
        <time>2005-03-20T10:06:41Z</time>
      </trkpt>
      <trkpt lat="45.55998" lon="4.83167">
        <ele>255</ele>
        <time>2005-03-20T10:06:44Z</time>
      </trkpt>
      <trkpt lat="45.55992" lon="4.83188">
        <ele>260</ele>
        <time>2005-03-20T10:07:04Z</time>
      </trkpt>
      <trkpt lat="45.55994" lon="4.83203">
        <ele>263</ele>
        <time>2005-03-20T10:07:18Z</time>
      </trkpt>
      <trkpt lat="45.55996" lon="4.83205">
        <ele>264</ele>
        <time>2005-03-20T10:07:20Z</time>
      </trkpt>
      <trkpt lat="45.56" lon="4.83216">
        <ele>267</ele>
        <time>2005-03-20T10:07:32Z</time>
      </trkpt>
      <trkpt lat="45.56" lon="4.83223">
        <ele>266</ele>
        <time>2005-03-20T10:07:53Z</time>
      </trkpt>
      <trkpt lat="45.55994" lon="4.83255">
        <ele>263</ele>
        <time>2005-03-20T10:08:04Z</time>
      </trkpt>
      <trkpt lat="45.5599" lon="4.8327">
        <ele>262</ele>
        <time>2005-03-20T10:08:06Z</time>
      </trkpt>
      <trkpt lat="45.55987" lon="4.83285">
        <ele>260</ele>
        <time>2005-03-20T10:08:08Z</time>
      </trkpt>
      <trkpt lat="45.55983" lon="4.83293">
        <ele>259</ele>
        <time>2005-03-20T10:08:10Z</time>
      </trkpt>
      <trkpt lat="45.55972" lon="4.83285">
        <ele>255</ele>
        <time>2005-03-20T10:08:14Z</time>
      </trkpt>
      <trkpt lat="45.5597" lon="4.8328">
        <ele>255</ele>
        <time>2005-03-20T10:08:15Z</time>
      </trkpt>
      <trkpt lat="45.55957" lon="4.83272">
        <ele>252</ele>
        <time>2005-03-20T10:08:18Z</time>
      </trkpt>
      <trkpt lat="45.55953" lon="4.83268">
        <ele>249</ele>
        <time>2005-03-20T10:08:19Z</time>
      </trkpt>
      <trkpt lat="45.55936" lon="4.83272">
        <ele>252</ele>
        <time>2005-03-20T10:08:22Z</time>
      </trkpt>
      <trkpt lat="45.55925" lon="4.8328">
        <ele>256</ele>
        <time>2005-03-20T10:08:30Z</time>
      </trkpt>
      <trkpt lat="45.55912" lon="4.83283">
        <ele>258</ele>
        <time>2005-03-20T10:08:41Z</time>
      </trkpt>
      <trkpt lat="45.55904" lon="4.83302">
        <ele>261</ele>
        <time>2005-03-20T10:08:56Z</time>
      </trkpt>
      <trkpt lat="45.55904" lon="4.83308">
        <ele>262</ele>
        <time>2005-03-20T10:09:01Z</time>
      </trkpt>
      <trkpt lat="45.55889" lon="4.83349">
        <ele>268</ele>
        <time>2005-03-20T10:09:32Z</time>
      </trkpt>
      <trkpt lat="45.55893" lon="4.83375">
        <ele>268</ele>
        <time>2005-03-20T10:09:48Z</time>
      </trkpt>
      <trkpt lat="45.55895" lon="4.83418">
        <ele>272</ele>
        <time>2005-03-20T10:10:09Z</time>
      </trkpt>
      <trkpt lat="45.55882" lon="4.83486">
        <ele>277</ele>
        <time>2005-03-20T10:10:43Z</time>
      </trkpt>
      <trkpt lat="45.55846" lon="4.83572">
        <ele>277</ele>
        <time>2005-03-20T10:11:06Z</time>
      </trkpt>
      <trkpt lat="45.55857" lon="4.83585">
        <ele>278</ele>
        <time>2005-03-20T10:11:12Z</time>
      </trkpt>
      <trkpt lat="45.55936" lon="4.83654">
        <ele>286</ele>
        <time>2005-03-20T10:11:52Z</time>
      </trkpt>
      <trkpt lat="45.55983" lon="4.83699">
        <ele>288</ele>
        <time>2005-03-20T10:12:16Z</time>
      </trkpt>
      <trkpt lat="45.56039" lon="4.8374">
        <ele>289</ele>
        <time>2005-03-20T10:12:38Z</time>
      </trkpt>
      <trkpt lat="45.56054" lon="4.83757">
        <ele>290</ele>
        <time>2005-03-20T10:12:45Z</time>
      </trkpt>
      <trkpt lat="45.56039" lon="4.83838">
        <ele>290</ele>
        <time>2005-03-20T10:13:04Z</time>
      </trkpt>
      <trkpt lat="45.56022" lon="4.83896">
        <ele>293</ele>
        <time>2005-03-20T10:13:19Z</time>
      </trkpt>
      <trkpt lat="45.56013" lon="4.8392">
        <ele>295</ele>
        <time>2005-03-20T10:13:25Z</time>
      </trkpt>
      <trkpt lat="45.55981" lon="4.84001">
        <ele>296</ele>
        <time>2005-03-20T10:13:47Z</time>
      </trkpt>
      <trkpt lat="45.55957" lon="4.8407">
        <ele>299</ele>
        <time>2005-03-20T10:14:05Z</time>
      </trkpt>
      <trkpt lat="45.55938" lon="4.84117">
        <ele>302</ele>
        <time>2005-03-20T10:14:19Z</time>
      </trkpt>
      <trkpt lat="45.55906" lon="4.84162">
        <ele>303</ele>
        <time>2005-03-20T10:14:37Z</time>
      </trkpt>
      <trkpt lat="45.55867" lon="4.84188">
        <ele>305</ele>
        <time>2005-03-20T10:14:53Z</time>
      </trkpt>
      <trkpt lat="45.55704" lon="4.84169">
        <ele>307</ele>
        <time>2005-03-20T10:15:46Z</time>
      </trkpt>
      <trkpt lat="45.55691" lon="4.84165">
        <ele>305</ele>
        <time>2005-03-20T10:15:48Z</time>
      </trkpt>
      <trkpt lat="45.55655" lon="4.84137">
        <ele>310</ele>
        <time>2005-03-20T10:15:57Z</time>
      </trkpt>
      <trkpt lat="45.55638" lon="4.8413">
        <ele>312</ele>
        <time>2005-03-20T10:16:03Z</time>
      </trkpt>
      <trkpt lat="45.5561" lon="4.84128">
        <ele>310</ele>
        <time>2005-03-20T10:16:11Z</time>
      </trkpt>
      <trkpt lat="45.55515" lon="4.84113">
        <ele>305</ele>
        <time>2005-03-20T10:16:26Z</time>
      </trkpt>
      <trkpt lat="45.55462" lon="4.84132">
        <ele>309</ele>
        <time>2005-03-20T10:16:39Z</time>
      </trkpt>
      <trkpt lat="45.55436" lon="4.84152">
        <ele>311</ele>
        <time>2005-03-20T10:16:47Z</time>
      </trkpt>
      <trkpt lat="45.55404" lon="4.8415">
        <ele>307</ele>
        <time>2005-03-20T10:16:53Z</time>
      </trkpt>
      <trkpt lat="45.55397" lon="4.84147">
        <ele>308</ele>
        <time>2005-03-20T10:16:54Z</time>
      </trkpt>
      <trkpt lat="45.55311" lon="4.84085">
        <ele>311</ele>
        <time>2005-03-20T10:17:11Z</time>
      </trkpt>
      <trkpt lat="45.55254" lon="4.84051">
        <ele>314</ele>
        <time>2005-03-20T10:17:27Z</time>
      </trkpt>
      <trkpt lat="45.55176" lon="4.84038">
        <ele>313</ele>
        <time>2005-03-20T10:17:46Z</time>
      </trkpt>
      <trkpt lat="45.55155" lon="4.84044">
        <ele>314</ele>
        <time>2005-03-20T10:17:51Z</time>
      </trkpt>
      <trkpt lat="45.55133" lon="4.84072">
        <ele>312</ele>
        <time>2005-03-20T10:17:57Z</time>
      </trkpt>
      <trkpt lat="45.55121" lon="4.84098">
        <ele>314</ele>
        <time>2005-03-20T10:18:02Z</time>
      </trkpt>
      <trkpt lat="45.55037" lon="4.84203">
        <ele>315</ele>
        <time>2005-03-20T10:18:27Z</time>
      </trkpt>
      <trkpt lat="45.55022" lon="4.8424">
        <ele>315</ele>
        <time>2005-03-20T10:18:35Z</time>
      </trkpt>
      <trkpt lat="45.5502" lon="4.84252">
        <ele>314</ele>
        <time>2005-03-20T10:18:37Z</time>
      </trkpt>
      <trkpt lat="45.55022" lon="4.84285">
        <ele>310</ele>
        <time>2005-03-20T10:18:41Z</time>
      </trkpt>
      <trkpt lat="45.55024" lon="4.84293">
        <ele>309</ele>
        <time>2005-03-20T10:18:42Z</time>
      </trkpt>
      <trkpt lat="45.55028" lon="4.84317">
        <ele>309</ele>
        <time>2005-03-20T10:18:44Z</time>
      </trkpt>
      <trkpt lat="45.55035" lon="4.84373">
        <ele>307</ele>
        <time>2005-03-20T10:18:55Z</time>
      </trkpt>
      <trkpt lat="45.55022" lon="4.84448">
        <ele>302</ele>
        <time>2005-03-20T10:18:59Z</time>
      </trkpt>
      <trkpt lat="45.5499" lon="4.84461">
        <ele>299</ele>
        <time>2005-03-20T10:19:03Z</time>
      </trkpt>
      <trkpt lat="45.54953" lon="4.84461">
        <ele>302</ele>
        <time>2005-03-20T10:19:08Z</time>
      </trkpt>
      <trkpt lat="45.54923" lon="4.84463">
        <ele>306</ele>
        <time>2005-03-20T10:19:13Z</time>
      </trkpt>
      <trkpt lat="45.54884" lon="4.84478">
        <ele>309</ele>
        <time>2005-03-20T10:19:25Z</time>
      </trkpt>
      <trkpt lat="45.54852" lon="4.84508">
        <ele>311</ele>
        <time>2005-03-20T10:19:43Z</time>
      </trkpt>
      <trkpt lat="45.54807" lon="4.84555">
        <ele>307</ele>
        <time>2005-03-20T10:19:58Z</time>
      </trkpt>
      <trkpt lat="45.5479" lon="4.84574">
        <ele>305</ele>
        <time>2005-03-20T10:20:02Z</time>
      </trkpt>
      <trkpt lat="45.54779" lon="4.84598">
        <ele>304</ele>
        <time>2005-03-20T10:20:09Z</time>
      </trkpt>
      <trkpt lat="45.54775" lon="4.84626">
        <ele>300</ele>
        <time>2005-03-20T10:20:13Z</time>
      </trkpt>
      <trkpt lat="45.54786" lon="4.84649">
        <ele>296</ele>
        <time>2005-03-20T10:20:16Z</time>
      </trkpt>
      <trkpt lat="45.54797" lon="4.84664">
        <ele>296</ele>
        <time>2005-03-20T10:20:18Z</time>
      </trkpt>
      <trkpt lat="45.54807" lon="4.84701">
        <ele>296</ele>
        <time>2005-03-20T10:20:22Z</time>
      </trkpt>
      <trkpt lat="45.54801" lon="4.84731">
        <ele>301</ele>
        <time>2005-03-20T10:20:27Z</time>
      </trkpt>
      <trkpt lat="45.54801" lon="4.84735">
        <ele>301</ele>
        <time>2005-03-20T10:20:28Z</time>
      </trkpt>
      <trkpt lat="45.54797" lon="4.84752">
        <ele>302</ele>
        <time>2005-03-20T10:20:32Z</time>
      </trkpt>
      <trkpt lat="45.54794" lon="4.84765">
        <ele>305</ele>
        <time>2005-03-20T10:20:35Z</time>
      </trkpt>
      <trkpt lat="45.54792" lon="4.84791">
        <ele>303</ele>
        <time>2005-03-20T10:20:41Z</time>
      </trkpt>
      <trkpt lat="45.54797" lon="4.84815">
        <ele>303</ele>
        <time>2005-03-20T10:20:45Z</time>
      </trkpt>
      <trkpt lat="45.54805" lon="4.8483">
        <ele>302</ele>
        <time>2005-03-20T10:20:48Z</time>
      </trkpt>
      <trkpt lat="45.54807" lon="4.84836">
        <ele>301</ele>
        <time>2005-03-20T10:20:49Z</time>
      </trkpt>
      <trkpt lat="45.54807" lon="4.84918">
        <ele>305</ele>
        <time>2005-03-20T10:21:03Z</time>
      </trkpt>
      <trkpt lat="45.54809" lon="4.84922">
        <ele>305</ele>
        <time>2005-03-20T10:21:04Z</time>
      </trkpt>
      <trkpt lat="45.54824" lon="4.84978">
        <ele>306</ele>
        <time>2005-03-20T10:21:21Z</time>
      </trkpt>
      <trkpt lat="45.54846" lon="4.85006">
        <ele>302</ele>
        <time>2005-03-20T10:21:29Z</time>
      </trkpt>
      <trkpt lat="45.54854" lon="4.85012">
        <ele>301</ele>
        <time>2005-03-20T10:21:31Z</time>
      </trkpt>
      <trkpt lat="45.54899" lon="4.85031">
        <ele>300</ele>
        <time>2005-03-20T10:21:39Z</time>
      </trkpt>
      <trkpt lat="45.54972" lon="4.85038">
        <ele>303</ele>
        <time>2005-03-20T10:21:55Z</time>
      </trkpt>
      <trkpt lat="45.5503" lon="4.85008">
        <ele>306</ele>
        <time>2005-03-20T10:22:12Z</time>
      </trkpt>
      <trkpt lat="45.5506" lon="4.84982">
        <ele>309</ele>
        <time>2005-03-20T10:22:26Z</time>
      </trkpt>
      <trkpt lat="45.55086" lon="4.84952">
        <ele>312</ele>
        <time>2005-03-20T10:22:41Z</time>
      </trkpt>
      <trkpt lat="45.5511" lon="4.84937">
        <ele>315</ele>
        <time>2005-03-20T10:22:59Z</time>
      </trkpt>
      <trkpt lat="45.55138" lon="4.84928">
        <ele>319</ele>
        <time>2005-03-20T10:23:15Z</time>
      </trkpt>
      <trkpt lat="45.55168" lon="4.84922">
        <ele>321</ele>
        <time>2005-03-20T10:23:33Z</time>
      </trkpt>
      <trkpt lat="45.55189" lon="4.84956">
        <ele>321</ele>
        <time>2005-03-20T10:23:47Z</time>
      </trkpt>
      <trkpt lat="45.55181" lon="4.84988">
        <ele>324</ele>
        <time>2005-03-20T10:23:59Z</time>
      </trkpt>
      <trkpt lat="45.55196" lon="4.85019">
        <ele>327</ele>
        <time>2005-03-20T10:29:55Z</time>
      </trkpt>
      <trkpt lat="45.55202" lon="4.8504">
        <ele>326</ele>
        <time>2005-03-20T10:30:02Z</time>
      </trkpt>
      <trkpt lat="45.55198" lon="4.85068">
        <ele>324</ele>
        <time>2005-03-20T10:30:06Z</time>
      </trkpt>
      <trkpt lat="45.55193" lon="4.85079">
        <ele>324</ele>
        <time>2005-03-20T10:30:08Z</time>
      </trkpt>
      <trkpt lat="45.55176" lon="4.85173">
        <ele>320</ele>
        <time>2005-03-20T10:30:25Z</time>
      </trkpt>
      <trkpt lat="45.55174" lon="4.85285">
        <ele>310</ele>
        <time>2005-03-20T10:30:34Z</time>
      </trkpt>
      <trkpt lat="45.5517" lon="4.85323">
        <ele>307</ele>
        <time>2005-03-20T10:30:37Z</time>
      </trkpt>
      <trkpt lat="45.5517" lon="4.85349">
        <ele>305</ele>
        <time>2005-03-20T10:30:39Z</time>
      </trkpt>
      <trkpt lat="45.55172" lon="4.85368">
        <ele>304</ele>
        <time>2005-03-20T10:30:49Z</time>
      </trkpt>
      <trkpt lat="45.55243" lon="4.85443">
        <ele>305</ele>
        <time>2005-03-20T10:30:58Z</time>
      </trkpt>
      <trkpt lat="45.55333" lon="4.85448">
        <ele>305</ele>
        <time>2005-03-20T10:31:14Z</time>
      </trkpt>
      <trkpt lat="45.55389" lon="4.85443">
        <ele>308</ele>
        <time>2005-03-20T10:31:26Z</time>
      </trkpt>
      <trkpt lat="45.55442" lon="4.85416">
        <ele>311</ele>
        <time>2005-03-20T10:31:42Z</time>
      </trkpt>
      <trkpt lat="45.55447" lon="4.85411">
        <ele>312</ele>
        <time>2005-03-20T10:31:44Z</time>
      </trkpt>
      <trkpt lat="45.55477" lon="4.854">
        <ele>315</ele>
        <time>2005-03-20T10:31:55Z</time>
      </trkpt>
      <trkpt lat="45.55526" lon="4.85379">
        <ele>317</ele>
        <time>2005-03-20T10:32:15Z</time>
      </trkpt>
      <trkpt lat="45.5561" lon="4.85325">
        <ele>325</ele>
        <time>2005-03-20T10:32:54Z</time>
      </trkpt>
      <trkpt lat="45.55627" lon="4.85306">
        <ele>328</ele>
        <time>2005-03-20T10:33:09Z</time>
      </trkpt>
      <trkpt lat="45.55629" lon="4.85302">
        <ele>329</ele>
        <time>2005-03-20T10:33:12Z</time>
      </trkpt>
      <trkpt lat="45.5564" lon="4.85267">
        <ele>333</ele>
        <time>2005-03-20T10:33:31Z</time>
      </trkpt>
      <trkpt lat="45.55653" lon="4.85218">
        <ele>334</ele>
        <time>2005-03-20T10:33:51Z</time>
      </trkpt>
      <trkpt lat="45.55659" lon="4.85143">
        <ele>335</ele>
        <time>2005-03-20T10:34:06Z</time>
      </trkpt>
      <trkpt lat="45.55659" lon="4.85057">
        <ele>331</ele>
        <time>2005-03-20T10:34:19Z</time>
      </trkpt>
      <trkpt lat="45.55651" lon="4.84926">
        <ele>332</ele>
        <time>2005-03-20T10:34:32Z</time>
      </trkpt>
      <trkpt lat="45.55651" lon="4.84909">
        <ele>335</ele>
        <time>2005-03-20T10:34:35Z</time>
      </trkpt>
      <trkpt lat="45.55648" lon="4.84905">
        <ele>335</ele>
        <time>2005-03-20T10:34:36Z</time>
      </trkpt>
      <trkpt lat="45.55648" lon="4.8484">
        <ele>332</ele>
        <time>2005-03-20T10:34:46Z</time>
      </trkpt>
      <trkpt lat="45.55657" lon="4.84735">
        <ele>335</ele>
        <time>2005-03-20T10:35:02Z</time>
      </trkpt>
      <trkpt lat="45.55674" lon="4.84645">
        <ele>331</ele>
        <time>2005-03-20T10:35:16Z</time>
      </trkpt>
      <trkpt lat="45.55693" lon="4.84506">
        <ele>328</ele>
        <time>2005-03-20T10:35:31Z</time>
      </trkpt>
      <trkpt lat="45.55696" lon="4.84497">
        <ele>326</ele>
        <time>2005-03-20T10:35:35Z</time>
      </trkpt>
      <trkpt lat="45.55715" lon="4.84441">
        <ele>325</ele>
        <time>2005-03-20T10:35:39Z</time>
      </trkpt>
      <trkpt lat="45.55736" lon="4.84407">
        <ele>320</ele>
        <time>2005-03-20T10:35:43Z</time>
      </trkpt>
      <trkpt lat="45.55777" lon="4.84403">
        <ele>316</ele>
        <time>2005-03-20T10:35:49Z</time>
      </trkpt>
      <trkpt lat="45.55784" lon="4.84409">
        <ele>315</ele>
        <time>2005-03-20T10:35:50Z</time>
      </trkpt>
      <trkpt lat="45.55794" lon="4.84424">
        <ele>316</ele>
        <time>2005-03-20T10:35:52Z</time>
      </trkpt>
      <trkpt lat="45.55814" lon="4.84463">
        <ele>312</ele>
        <time>2005-03-20T10:35:56Z</time>
      </trkpt>
      <trkpt lat="45.55829" lon="4.84465">
        <ele>312</ele>
        <time>2005-03-20T10:35:58Z</time>
      </trkpt>
      <trkpt lat="45.55929" lon="4.84474">
        <ele>305</ele>
        <time>2005-03-20T10:36:09Z</time>
      </trkpt>
      <trkpt lat="45.55947" lon="4.84474">
        <ele>306</ele>
        <time>2005-03-20T10:36:12Z</time>
      </trkpt>
      <trkpt lat="45.55966" lon="4.84476">
        <ele>306</ele>
        <time>2005-03-20T10:36:14Z</time>
      </trkpt>
      <trkpt lat="45.55953" lon="4.84531">
        <ele>304</ele>
        <time>2005-03-20T10:36:18Z</time>
      </trkpt>
      <trkpt lat="45.55953" lon="4.84658">
        <ele>302</ele>
        <time>2005-03-20T10:36:30Z</time>
      </trkpt>
      <trkpt lat="45.55972" lon="4.8472">
        <ele>301</ele>
        <time>2005-03-20T10:36:36Z</time>
      </trkpt>
      <trkpt lat="45.55998" lon="4.84722">
        <ele>300</ele>
        <time>2005-03-20T10:36:42Z</time>
      </trkpt>
      <trkpt lat="45.56007" lon="4.84705">
        <ele>299</ele>
        <time>2005-03-20T10:36:46Z</time>
      </trkpt>
      <trkpt lat="45.55992" lon="4.84737">
        <ele>300</ele>
        <time>2005-03-20T10:36:49Z</time>
      </trkpt>
      <trkpt lat="45.56071" lon="4.84718">
        <ele>296</ele>
        <time>2005-03-20T10:37:00Z</time>
      </trkpt>
      <trkpt lat="45.56075" lon="4.8472">
        <ele>296</ele>
        <time>2005-03-20T10:37:01Z</time>
      </trkpt>
      <trkpt lat="45.56174" lon="4.84735">
        <ele>296</ele>
        <time>2005-03-20T10:37:28Z</time>
      </trkpt>
      <trkpt lat="45.56219" lon="4.84737">
        <ele>296</ele>
        <time>2005-03-20T10:37:42Z</time>
      </trkpt>
      <trkpt lat="45.56223" lon="4.84725">
        <ele>295</ele>
        <time>2005-03-20T10:37:46Z</time>
      </trkpt>
      <trkpt lat="45.56226" lon="4.84662">
        <ele>290</ele>
        <time>2005-03-20T10:37:55Z</time>
      </trkpt>
      <trkpt lat="45.56232" lon="4.84641">
        <ele>289</ele>
        <time>2005-03-20T10:37:59Z</time>
      </trkpt>
      <trkpt lat="45.56258" lon="4.84611">
        <ele>288</ele>
        <time>2005-03-20T10:38:08Z</time>
      </trkpt>
      <trkpt lat="45.5626" lon="4.84594">
        <ele>286</ele>
        <time>2005-03-20T10:38:15Z</time>
      </trkpt>
      <trkpt lat="45.56256" lon="4.84589">
        <ele>284</ele>
        <time>2005-03-20T10:38:19Z</time>
      </trkpt>
      <trkpt lat="45.56253" lon="4.84574">
        <ele>286</ele>
        <time>2005-03-20T10:38:37Z</time>
      </trkpt>
      <trkpt lat="45.56253" lon="4.84566">
        <ele>286</ele>
        <time>2005-03-20T10:38:44Z</time>
      </trkpt>
      <trkpt lat="45.56256" lon="4.84559">
        <ele>287</ele>
        <time>2005-03-20T10:39:03Z</time>
      </trkpt>
      <trkpt lat="45.56275" lon="4.84544">
        <ele>287</ele>
        <time>2005-03-20T10:39:15Z</time>
      </trkpt>
      <trkpt lat="45.56288" lon="4.84523">
        <ele>288</ele>
        <time>2005-03-20T10:39:26Z</time>
      </trkpt>
      <trkpt lat="45.56303" lon="4.84501">
        <ele>290</ele>
        <time>2005-03-20T10:39:37Z</time>
      </trkpt>
      <trkpt lat="45.56305" lon="4.84493">
        <ele>290</ele>
        <time>2005-03-20T10:39:41Z</time>
      </trkpt>
      <trkpt lat="45.56309" lon="4.84491">
        <ele>290</ele>
        <time>2005-03-20T10:39:43Z</time>
      </trkpt>
      <trkpt lat="45.56314" lon="4.84497">
        <ele>290</ele>
        <time>2005-03-20T10:39:53Z</time>
      </trkpt>
      <trkpt lat="45.56318" lon="4.84519">
        <ele>287</ele>
        <time>2005-03-20T10:40:02Z</time>
      </trkpt>
      <trkpt lat="45.5632" lon="4.84525">
        <ele>286</ele>
        <time>2005-03-20T10:40:04Z</time>
      </trkpt>
      <trkpt lat="45.56331" lon="4.8454">
        <ele>283</ele>
        <time>2005-03-20T10:40:10Z</time>
      </trkpt>
      <trkpt lat="45.56339" lon="4.84546">
        <ele>279</ele>
        <time>2005-03-20T10:40:14Z</time>
      </trkpt>
      <trkpt lat="45.56359" lon="4.84555">
        <ele>277</ele>
        <time>2005-03-20T10:40:17Z</time>
      </trkpt>
      <trkpt lat="45.56365" lon="4.84559">
        <ele>278</ele>
        <time>2005-03-20T10:40:18Z</time>
      </trkpt>
      <trkpt lat="45.56417" lon="4.8457">
        <ele>276</ele>
        <time>2005-03-20T10:40:27Z</time>
      </trkpt>
      <trkpt lat="45.56432" lon="4.84581">
        <ele>272</ele>
        <time>2005-03-20T10:40:30Z</time>
      </trkpt>
      <trkpt lat="45.56459" lon="4.84604">
        <ele>267</ele>
        <time>2005-03-20T10:40:36Z</time>
      </trkpt>
      <trkpt lat="45.56466" lon="4.84611">
        <ele>264</ele>
        <time>2005-03-20T10:40:38Z</time>
      </trkpt>
      <trkpt lat="45.5647" lon="4.84613">
        <ele>263</ele>
        <time>2005-03-20T10:40:39Z</time>
      </trkpt>
      <trkpt lat="45.56481" lon="4.84613">
        <ele>264</ele>
        <time>2005-03-20T10:40:43Z</time>
      </trkpt>
      <trkpt lat="45.56487" lon="4.84587">
        <ele>266</ele>
        <time>2005-03-20T10:40:54Z</time>
      </trkpt>
      <trkpt lat="45.56502" lon="4.84555">
        <ele>270</ele>
        <time>2005-03-20T10:41:18Z</time>
      </trkpt>
      <trkpt lat="45.56502" lon="4.84538">
        <ele>272</ele>
        <time>2005-03-20T10:41:32Z</time>
      </trkpt>
      <trkpt lat="45.565" lon="4.84512">
        <ele>275</ele>
        <time>2005-03-20T10:41:54Z</time>
      </trkpt>
      <trkpt lat="45.56502" lon="4.84493">
        <ele>278</ele>
        <time>2005-03-20T10:42:11Z</time>
      </trkpt>
      <trkpt lat="45.56502" lon="4.84474">
        <ele>281</ele>
        <time>2005-03-20T10:42:29Z</time>
      </trkpt>
      <trkpt lat="45.565" lon="4.84461">
        <ele>283</ele>
        <time>2005-03-20T10:42:46Z</time>
      </trkpt>
      <trkpt lat="45.565" lon="4.84448">
        <ele>285</ele>
        <time>2005-03-20T10:42:56Z</time>
      </trkpt>
      <trkpt lat="45.56498" lon="4.84418">
        <ele>287</ele>
        <time>2005-03-20T10:43:14Z</time>
      </trkpt>
      <trkpt lat="45.56496" lon="4.84403">
        <ele>289</ele>
        <time>2005-03-20T10:43:24Z</time>
      </trkpt>
      <trkpt lat="45.56483" lon="4.84371">
        <ele>289</ele>
        <time>2005-03-20T10:43:42Z</time>
      </trkpt>
      <trkpt lat="45.56462" lon="4.84328">
        <ele>290</ele>
        <time>2005-03-20T10:43:59Z</time>
      </trkpt>
      <trkpt lat="45.56427" lon="4.84272">
        <ele>289</ele>
        <time>2005-03-20T10:44:15Z</time>
      </trkpt>
      <trkpt lat="45.56417" lon="4.84195">
        <ele>289</ele>
        <time>2005-03-20T10:44:29Z</time>
      </trkpt>
      <trkpt lat="45.56404" lon="4.84113">
        <ele>292</ele>
        <time>2005-03-20T10:44:43Z</time>
      </trkpt>
      <trkpt lat="45.56397" lon="4.84053">
        <ele>291</ele>
        <time>2005-03-20T10:44:55Z</time>
      </trkpt>
      <trkpt lat="45.56408" lon="4.84042">
        <ele>291</ele>
        <time>2005-03-20T10:44:59Z</time>
      </trkpt>
      <trkpt lat="45.56455" lon="4.84016">
        <ele>288</ele>
        <time>2005-03-20T10:45:09Z</time>
      </trkpt>
      <trkpt lat="45.56472" lon="4.84006">
        <ele>287</ele>
        <time>2005-03-20T10:45:12Z</time>
      </trkpt>
      <trkpt lat="45.5652" lon="4.8398">
        <ele>285</ele>
        <time>2005-03-20T10:45:19Z</time>
      </trkpt>
      <trkpt lat="45.56526" lon="4.83978">
        <ele>282</ele>
        <time>2005-03-20T10:45:20Z</time>
      </trkpt>
      <trkpt lat="45.56573" lon="4.8395">
        <ele>278</ele>
        <time>2005-03-20T10:45:26Z</time>
      </trkpt>
      <trkpt lat="45.56582" lon="4.83946">
        <ele>275</ele>
        <time>2005-03-20T10:45:27Z</time>
      </trkpt>
      <trkpt lat="45.56614" lon="4.83933">
        <ele>269</ele>
        <time>2005-03-20T10:45:30Z</time>
      </trkpt>
      <trkpt lat="45.56635" lon="4.83928">
        <ele>267</ele>
        <time>2005-03-20T10:45:32Z</time>
      </trkpt>
      <trkpt lat="45.567" lon="4.83909">
        <ele>262</ele>
        <time>2005-03-20T10:45:38Z</time>
      </trkpt>
      <trkpt lat="45.56717" lon="4.83909">
        <ele>264</ele>
        <time>2005-03-20T10:45:43Z</time>
      </trkpt>
      <trkpt lat="45.5673" lon="4.83926">
        <ele>257</ele>
        <time>2005-03-20T10:45:50Z</time>
      </trkpt>
      <trkpt lat="45.5682" lon="4.83883">
        <ele>255</ele>
        <time>2005-03-20T10:46:02Z</time>
      </trkpt>
      <trkpt lat="45.56822" lon="4.83858">
        <ele>254</ele>
        <time>2005-03-20T10:46:07Z</time>
      </trkpt>
      <trkpt lat="45.56818" lon="4.83832">
        <ele>254</ele>
        <time>2005-03-20T10:46:11Z</time>
      </trkpt>
      <trkpt lat="45.56799" lon="4.83791">
        <ele>253</ele>
        <time>2005-03-20T10:46:20Z</time>
      </trkpt>
      <trkpt lat="45.56803" lon="4.83772">
        <ele>246</ele>
        <time>2005-03-20T10:46:24Z</time>
      </trkpt>
      <trkpt lat="45.56803" lon="4.83765">
        <ele>244</ele>
        <time>2005-03-20T10:46:25Z</time>
      </trkpt>
      <trkpt lat="45.56863" lon="4.83742">
        <ele>240</ele>
        <time>2005-03-20T10:46:28Z</time>
      </trkpt>
      <trkpt lat="45.56863" lon="4.83733">
        <ele>236</ele>
        <time>2005-03-20T10:46:31Z</time>
      </trkpt>
      <trkpt lat="45.56807" lon="4.83604">
        <ele>235</ele>
        <time>2005-03-20T10:47:14Z</time>
      </trkpt>
      <trkpt lat="45.56807" lon="4.83566">
        <ele>237</ele>
        <time>2005-03-20T10:47:33Z</time>
      </trkpt>
      <trkpt lat="45.5682" lon="4.8354">
        <ele>239</ele>
        <time>2005-03-20T10:47:52Z</time>
      </trkpt>
      <trkpt lat="45.56833" lon="4.83499">
        <ele>241</ele>
        <time>2005-03-20T10:48:10Z</time>
      </trkpt>
      <trkpt lat="45.56831" lon="4.83418">
        <ele>242</ele>
        <time>2005-03-20T10:48:32Z</time>
      </trkpt>
      <trkpt lat="45.56811" lon="4.83388">
        <ele>240</ele>
        <time>2005-03-20T10:48:42Z</time>
      </trkpt>
      <trkpt lat="45.5682" lon="4.83362">
        <ele>242</ele>
        <time>2005-03-20T10:48:50Z</time>
      </trkpt>
      <trkpt lat="45.56848" lon="4.83341">
        <ele>245</ele>
        <time>2005-03-20T10:49:07Z</time>
      </trkpt>
      <trkpt lat="45.56865" lon="4.83323">
        <ele>248</ele>
        <time>2005-03-20T10:49:20Z</time>
      </trkpt>
      <trkpt lat="45.56891" lon="4.83291">
        <ele>252</ele>
        <time>2005-03-20T10:49:39Z</time>
      </trkpt>
      <trkpt lat="45.56895" lon="4.83261">
        <ele>253</ele>
        <time>2005-03-20T10:49:55Z</time>
      </trkpt>
      <trkpt lat="45.56886" lon="4.83255">
        <ele>253</ele>
        <time>2005-03-20T10:49:59Z</time>
      </trkpt>
      <trkpt lat="45.56846" lon="4.83231">
        <ele>251</ele>
        <time>2005-03-20T10:50:16Z</time>
      </trkpt>
      <trkpt lat="45.56846" lon="4.83229">
        <ele>250</ele>
        <time>2005-03-20T10:50:18Z</time>
      </trkpt>
      <trkpt lat="45.56844" lon="4.83227">
        <ele>246</ele>
        <time>2005-03-20T10:50:21Z</time>
      </trkpt>
      <trkpt lat="45.56852" lon="4.83218">
        <ele>240</ele>
        <time>2005-03-20T10:50:23Z</time>
      </trkpt>
      <trkpt lat="45.56889" lon="4.83195">
        <ele>232</ele>
        <time>2005-03-20T10:50:27Z</time>
      </trkpt>
      <trkpt lat="45.56949" lon="4.83158">
        <ele>227</ele>
        <time>2005-03-20T10:50:38Z</time>
      </trkpt>
      <trkpt lat="45.56953" lon="4.83154">
        <ele>224</ele>
        <time>2005-03-20T10:50:41Z</time>
      </trkpt>
      <trkpt lat="45.56962" lon="4.83147">
        <ele>217</ele>
        <time>2005-03-20T10:50:45Z</time>
      </trkpt>
      <trkpt lat="45.56962" lon="4.83145">
        <ele>217</ele>
        <time>2005-03-20T10:50:46Z</time>
      </trkpt>
      <trkpt lat="45.56968" lon="4.83141">
        <ele>216</ele>
        <time>2005-03-20T10:50:49Z</time>
      </trkpt>
      <trkpt lat="45.56977" lon="4.83145">
        <ele>215</ele>
        <time>2005-03-20T10:50:52Z</time>
      </trkpt>
      <trkpt lat="45.57045" lon="4.8322">
        <ele>215</ele>
        <time>2005-03-20T10:50:55Z</time>
      </trkpt>
      <trkpt lat="45.57052" lon="4.8321">
        <ele>216</ele>
        <time>2005-03-20T10:50:57Z</time>
      </trkpt>
      <trkpt lat="45.57069" lon="4.83227">
        <ele>217</ele>
        <time>2005-03-20T10:51:19Z</time>
      </trkpt>
      <trkpt lat="45.57075" lon="4.83231">
        <ele>218</ele>
        <time>2005-03-20T10:51:26Z</time>
      </trkpt>
      <trkpt lat="45.57092" lon="4.83257">
        <ele>222</ele>
        <time>2005-03-20T10:51:44Z</time>
      </trkpt>
      <trkpt lat="45.57116" lon="4.8325">
        <ele>225</ele>
        <time>2005-03-20T10:52:03Z</time>
      </trkpt>
      <trkpt lat="45.57116" lon="4.83248">
        <ele>225</ele>
        <time>2005-03-20T10:52:05Z</time>
      </trkpt>
      <trkpt lat="45.57123" lon="4.83231">
        <ele>227</ele>
        <time>2005-03-20T10:52:15Z</time>
      </trkpt>
      <trkpt lat="45.5712" lon="4.83214">
        <ele>228</ele>
        <time>2005-03-20T10:52:23Z</time>
      </trkpt>
      <trkpt lat="45.57127" lon="4.83186">
        <ele>230</ele>
        <time>2005-03-20T10:52:46Z</time>
      </trkpt>
      <trkpt lat="45.57133" lon="4.83184">
        <ele>232</ele>
        <time>2005-03-20T10:52:51Z</time>
      </trkpt>
      <trkpt lat="45.57142" lon="4.83169">
        <ele>234</ele>
        <time>2005-03-20T10:53:03Z</time>
      </trkpt>
      <trkpt lat="45.57155" lon="4.83154">
        <ele>238</ele>
        <time>2005-03-20T10:53:19Z</time>
      </trkpt>
      <trkpt lat="45.57161" lon="4.83135">
        <ele>239</ele>
        <time>2005-03-20T10:53:37Z</time>
      </trkpt>
      <trkpt lat="45.57174" lon="4.83115">
        <ele>242</ele>
        <time>2005-03-20T10:53:55Z</time>
      </trkpt>
      <trkpt lat="45.57211" lon="4.8309">
        <ele>245</ele>
        <time>2005-03-20T10:54:17Z</time>
      </trkpt>
      <trkpt lat="45.5723" lon="4.83068">
        <ele>248</ele>
        <time>2005-03-20T10:54:32Z</time>
      </trkpt>
      <trkpt lat="45.57249" lon="4.83049">
        <ele>250</ele>
        <time>2005-03-20T10:54:50Z</time>
      </trkpt>
      <trkpt lat="45.57279" lon="4.83023">
        <ele>253</ele>
        <time>2005-03-20T10:55:10Z</time>
      </trkpt>
      <trkpt lat="45.57333" lon="4.82961">
        <ele>260</ele>
        <time>2005-03-20T10:55:44Z</time>
      </trkpt>
      <trkpt lat="45.57367" lon="4.82929">
        <ele>264</ele>
        <time>2005-03-20T10:56:07Z</time>
      </trkpt>
      <trkpt lat="45.57416" lon="4.82914">
        <ele>264</ele>
        <time>2005-03-20T10:56:28Z</time>
      </trkpt>
      <trkpt lat="45.57462" lon="4.82907">
        <ele>266</ele>
        <time>2005-03-20T10:56:46Z</time>
      </trkpt>
      <trkpt lat="45.57509" lon="4.82956">
        <ele>266</ele>
        <time>2005-03-20T10:57:02Z</time>
      </trkpt>
      <trkpt lat="45.57567" lon="4.83023">
        <ele>268</ele>
        <time>2005-03-20T10:57:22Z</time>
      </trkpt>
      <trkpt lat="45.57633" lon="4.83057">
        <ele>270</ele>
        <time>2005-03-20T10:57:42Z</time>
      </trkpt>
      <trkpt lat="45.57661" lon="4.83079">
        <ele>272</ele>
        <time>2005-03-20T10:57:53Z</time>
      </trkpt>
      <trkpt lat="45.57689" lon="4.83173">
        <ele>275</ele>
        <time>2005-03-20T10:58:14Z</time>
      </trkpt>
      <trkpt lat="45.57723" lon="4.83268">
        <ele>277</ele>
        <time>2005-03-20T10:58:35Z</time>
      </trkpt>
      <trkpt lat="45.57751" lon="4.83338">
        <ele>280</ele>
        <time>2005-03-20T10:58:53Z</time>
      </trkpt>
      <trkpt lat="45.57768" lon="4.83386">
        <ele>282</ele>
        <time>2005-03-20T10:59:07Z</time>
      </trkpt>
      <trkpt lat="45.57818" lon="4.83381">
        <ele>282</ele>
        <time>2005-03-20T10:59:23Z</time>
      </trkpt>
      <trkpt lat="45.57871" lon="4.83371">
        <ele>284</ele>
        <time>2005-03-20T10:59:39Z</time>
      </trkpt>
      <trkpt lat="45.5788" lon="4.83364">
        <ele>282</ele>
        <time>2005-03-20T10:59:42Z</time>
      </trkpt>
      <trkpt lat="45.57901" lon="4.83289">
        <ele>281</ele>
        <time>2005-03-20T10:59:52Z</time>
      </trkpt>
      <trkpt lat="45.57906" lon="4.83263">
        <ele>280</ele>
        <time>2005-03-20T10:59:56Z</time>
      </trkpt>
      <trkpt lat="45.57908" lon="4.8324">
        <ele>279</ele>
        <time>2005-03-20T10:59:59Z</time>
      </trkpt>
      <trkpt lat="45.57923" lon="4.83225">
        <ele>279</ele>
        <time>2005-03-20T11:00:04Z</time>
      </trkpt>
      <trkpt lat="45.57972" lon="4.83244">
        <ele>282</ele>
        <time>2005-03-20T11:00:18Z</time>
      </trkpt>
      <trkpt lat="45.58017" lon="4.83233">
        <ele>282</ele>
        <time>2005-03-20T11:00:31Z</time>
      </trkpt>
      <trkpt lat="45.58101" lon="4.83197">
        <ele>280</ele>
        <time>2005-03-20T11:00:48Z</time>
      </trkpt>
      <trkpt lat="45.58142" lon="4.83216">
        <ele>282</ele>
        <time>2005-03-20T11:01:01Z</time>
      </trkpt>
      <trkpt lat="45.58185" lon="4.83265">
        <ele>281</ele>
        <time>2005-03-20T11:01:16Z</time>
      </trkpt>
      <trkpt lat="45.58238" lon="4.83332">
        <ele>277</ele>
        <time>2005-03-20T11:01:28Z</time>
      </trkpt>
      <trkpt lat="45.58294" lon="4.83456">
        <ele>275</ele>
        <time>2005-03-20T11:01:45Z</time>
      </trkpt>
      <trkpt lat="45.58333" lon="4.83555">
        <ele>277</ele>
        <time>2005-03-20T11:02:02Z</time>
      </trkpt>
      <trkpt lat="45.58365" lon="4.83622">
        <ele>280</ele>
        <time>2005-03-20T11:02:17Z</time>
      </trkpt>
      <trkpt lat="45.58397" lon="4.83684">
        <ele>280</ele>
        <time>2005-03-20T11:02:32Z</time>
      </trkpt>
      <trkpt lat="45.58399" lon="4.83692">
        <ele>279</ele>
        <time>2005-03-20T11:02:34Z</time>
      </trkpt>
      <trkpt lat="45.58399" lon="4.8369">
        <ele>282</ele>
        <time>2005-03-20T11:02:48Z</time>
      </trkpt>
      <trkpt lat="45.58354" lon="4.83738">
        <ele>283</ele>
        <time>2005-03-20T11:02:52Z</time>
      </trkpt>
      <trkpt lat="45.58322" lon="4.83789">
        <ele>285</ele>
        <time>2005-03-20T11:03:10Z</time>
      </trkpt>
      <trkpt lat="45.58286" lon="4.83901">
        <ele>286</ele>
        <time>2005-03-20T11:03:34Z</time>
      </trkpt>
      <trkpt lat="45.58245" lon="4.83991">
        <ele>288</ele>
        <time>2005-03-20T11:03:56Z</time>
      </trkpt>
      <trkpt lat="45.58225" lon="4.84072">
        <ele>288</ele>
        <time>2005-03-20T11:04:12Z</time>
      </trkpt>
      <trkpt lat="45.58225" lon="4.84173">
        <ele>289</ele>
        <time>2005-03-20T11:04:30Z</time>
      </trkpt>
      <trkpt lat="45.58221" lon="4.84289">
        <ele>290</ele>
        <time>2005-03-20T11:04:52Z</time>
      </trkpt>
      <trkpt lat="45.58213" lon="4.84373">
        <ele>289</ele>
        <time>2005-03-20T11:05:08Z</time>
      </trkpt>
      <trkpt lat="45.58208" lon="4.84388">
        <ele>289</ele>
        <time>2005-03-20T11:05:11Z</time>
      </trkpt>
      <trkpt lat="45.58148" lon="4.8448">
        <ele>292</ele>
        <time>2005-03-20T11:05:33Z</time>
      </trkpt>
      <trkpt lat="45.58135" lon="4.84536">
        <ele>294</ele>
        <time>2005-03-20T11:05:46Z</time>
      </trkpt>
      <trkpt lat="45.58137" lon="4.84566">
        <ele>294</ele>
        <time>2005-03-20T11:05:52Z</time>
      </trkpt>
      <trkpt lat="45.58133" lon="4.84609">
        <ele>292</ele>
        <time>2005-03-20T11:05:58Z</time>
      </trkpt>
      <trkpt lat="45.5811" lon="4.84712">
        <ele>290</ele>
        <time>2005-03-20T11:06:11Z</time>
      </trkpt>
      <trkpt lat="45.58039" lon="4.84813">
        <ele>291</ele>
        <time>2005-03-20T11:06:29Z</time>
      </trkpt>
      <trkpt lat="45.58015" lon="4.84853">
        <ele>290</ele>
        <time>2005-03-20T11:06:36Z</time>
      </trkpt>
      <trkpt lat="45.58007" lon="4.8487">
        <ele>290</ele>
        <time>2005-03-20T11:06:39Z</time>
      </trkpt>
      <trkpt lat="45.58" lon="4.84913">
        <ele>291</ele>
        <time>2005-03-20T11:06:50Z</time>
      </trkpt>
      <trkpt lat="45.58056" lon="4.84933">
        <ele>291</ele>
        <time>2005-03-20T11:07:06Z</time>
      </trkpt>
      <trkpt lat="45.58129" lon="4.84956">
        <ele>293</ele>
        <time>2005-03-20T11:07:28Z</time>
      </trkpt>
      <trkpt lat="45.5818" lon="4.84971">
        <ele>296</ele>
        <time>2005-03-20T11:07:46Z</time>
      </trkpt>
      <trkpt lat="45.58238" lon="4.84984">
        <ele>299</ele>
        <time>2005-03-20T11:08:07Z</time>
      </trkpt>
      <trkpt lat="45.58275" lon="4.84991">
        <ele>301</ele>
        <time>2005-03-20T11:08:23Z</time>
      </trkpt>
      <trkpt lat="45.58333" lon="4.84999">
        <ele>307</ele>
        <time>2005-03-20T11:08:59Z</time>
      </trkpt>
      <trkpt lat="45.58346" lon="4.85004">
        <ele>310</ele>
        <time>2005-03-20T11:09:09Z</time>
      </trkpt>
      <trkpt lat="45.58352" lon="4.85025">
        <ele>311</ele>
        <time>2005-03-20T11:09:21Z</time>
      </trkpt>
      <trkpt lat="45.58352" lon="4.85109">
        <ele>313</ele>
        <time>2005-03-20T11:09:42Z</time>
      </trkpt>
      <trkpt lat="45.5835" lon="4.85207">
        <ele>315</ele>
        <time>2005-03-20T11:10:03Z</time>
      </trkpt>
      <trkpt lat="45.58354" lon="4.85306">
        <ele>321</ele>
        <time>2005-03-20T11:10:32Z</time>
      </trkpt>
      <trkpt lat="45.58365" lon="4.85373">
        <ele>317</ele>
        <time>2005-03-20T11:10:46Z</time>
      </trkpt>
      <trkpt lat="45.58389" lon="4.85463">
        <ele>318</ele>
        <time>2005-03-20T11:11:01Z</time>
      </trkpt>
      <trkpt lat="45.58389" lon="4.85506">
        <ele>320</ele>
        <time>2005-03-20T11:11:15Z</time>
      </trkpt>
      <trkpt lat="45.58382" lon="4.85525">
        <ele>323</ele>
        <time>2005-03-20T11:11:26Z</time>
      </trkpt>
      <trkpt lat="45.58421" lon="4.85581">
        <ele>326</ele>
        <time>2005-03-20T11:11:44Z</time>
      </trkpt>
      <trkpt lat="45.58442" lon="4.85594">
        <ele>329</ele>
        <time>2005-03-20T11:11:59Z</time>
      </trkpt>
      <trkpt lat="45.58468" lon="4.856">
        <ele>333</ele>
        <time>2005-03-20T11:12:19Z</time>
      </trkpt>
      <trkpt lat="45.58474" lon="4.85609">
        <ele>334</ele>
        <time>2005-03-20T11:12:25Z</time>
      </trkpt>
      <trkpt lat="45.58466" lon="4.85654">
        <ele>335</ele>
        <time>2005-03-20T11:12:41Z</time>
      </trkpt>
      <trkpt lat="45.58464" lon="4.85684">
        <ele>330</ele>
        <time>2005-03-20T11:12:48Z</time>
      </trkpt>
      <trkpt lat="45.58472" lon="4.8575">
        <ele>329</ele>
        <time>2005-03-20T11:13:02Z</time>
      </trkpt>
      <trkpt lat="45.58479" lon="4.85776">
        <ele>326</ele>
        <time>2005-03-20T11:13:06Z</time>
      </trkpt>
      <trkpt lat="45.58485" lon="4.85795">
        <ele>325</ele>
        <time>2005-03-20T11:13:09Z</time>
      </trkpt>
      <trkpt lat="45.58496" lon="4.85819">
        <ele>323</ele>
        <time>2005-03-20T11:13:12Z</time>
      </trkpt>
      <trkpt lat="45.58507" lon="4.85838">
        <ele>321</ele>
        <time>2005-03-20T11:13:15Z</time>
      </trkpt>
      <trkpt lat="45.58528" lon="4.8587">
        <ele>317</ele>
        <time>2005-03-20T11:13:20Z</time>
      </trkpt>
      <trkpt lat="45.58534" lon="4.85877">
        <ele>317</ele>
        <time>2005-03-20T11:13:21Z</time>
      </trkpt>
      <trkpt lat="45.58562" lon="4.85913">
        <ele>319</ele>
        <time>2005-03-20T11:13:27Z</time>
      </trkpt>
      <trkpt lat="45.58603" lon="4.8595">
        <ele>316</ele>
        <time>2005-03-20T11:13:35Z</time>
      </trkpt>
      <trkpt lat="45.58644" lon="4.85946">
        <ele>316</ele>
        <time>2005-03-20T11:13:43Z</time>
      </trkpt>
      <trkpt lat="45.58687" lon="4.85924">
        <ele>314</ele>
        <time>2005-03-20T11:13:52Z</time>
      </trkpt>
      <trkpt lat="45.58751" lon="4.85864">
        <ele>316</ele>
        <time>2005-03-20T11:14:10Z</time>
      </trkpt>
      <trkpt lat="45.58764" lon="4.85849">
        <ele>314</ele>
        <time>2005-03-20T11:14:16Z</time>
      </trkpt>
      <trkpt lat="45.58783" lon="4.85851">
        <ele>313</ele>
        <time>2005-03-20T11:14:20Z</time>
      </trkpt>
      <trkpt lat="45.58839" lon="4.85864">
        <ele>310</ele>
        <time>2005-03-20T11:14:30Z</time>
      </trkpt>
      <trkpt lat="45.58901" lon="4.85853">
        <ele>310</ele>
        <time>2005-03-20T11:14:42Z</time>
      </trkpt>
      <trkpt lat="45.58959" lon="4.85795">
        <ele>308</ele>
        <time>2005-03-20T11:14:56Z</time>
      </trkpt>
      <trkpt lat="45.58966" lon="4.85737">
        <ele>311</ele>
        <time>2005-03-20T11:15:06Z</time>
      </trkpt>
      <trkpt lat="45.58961" lon="4.85639">
        <ele>313</ele>
        <time>2005-03-20T11:15:26Z</time>
      </trkpt>
      <trkpt lat="45.58966" lon="4.85624">
        <ele>314</ele>
        <time>2005-03-20T11:15:29Z</time>
      </trkpt>
      <trkpt lat="45.58991" lon="4.85561">
        <ele>311</ele>
        <time>2005-03-20T11:15:47Z</time>
      </trkpt>
      <trkpt lat="45.59" lon="4.85514">
        <ele>314</ele>
        <time>2005-03-20T11:15:59Z</time>
      </trkpt>
      <trkpt lat="45.59002" lon="4.85471">
        <ele>314</ele>
        <time>2005-03-20T11:16:14Z</time>
      </trkpt>
      <trkpt lat="45.59" lon="4.85446">
        <ele>317</ele>
        <time>2005-03-20T11:16:26Z</time>
      </trkpt>
      <trkpt lat="45.58994" lon="4.85422">
        <ele>319</ele>
        <time>2005-03-20T11:16:38Z</time>
      </trkpt>
      <trkpt lat="45.58994" lon="4.85411">
        <ele>320</ele>
        <time>2005-03-20T11:16:44Z</time>
      </trkpt>
      <trkpt lat="45.58991" lon="4.85405">
        <ele>322</ele>
        <time>2005-03-20T11:16:47Z</time>
      </trkpt>
      <trkpt lat="45.58974" lon="4.85364">
        <ele>326</ele>
        <time>2005-03-20T11:17:15Z</time>
      </trkpt>
      <trkpt lat="45.58951" lon="4.8534">
        <ele>326</ele>
        <time>2005-03-20T11:17:32Z</time>
      </trkpt>
      <trkpt lat="45.58927" lon="4.85334">
        <ele>329</ele>
        <time>2005-03-20T11:17:51Z</time>
      </trkpt>
      <trkpt lat="45.58919" lon="4.85336">
        <ele>331</ele>
        <time>2005-03-20T11:17:57Z</time>
      </trkpt>
      <trkpt lat="45.58904" lon="4.85338">
        <ele>335</ele>
        <time>2005-03-20T11:18:11Z</time>
      </trkpt>
      <trkpt lat="45.58882" lon="4.85338">
        <ele>338</ele>
        <time>2005-03-20T11:18:29Z</time>
      </trkpt>
      <trkpt lat="45.58854" lon="4.85343">
        <ele>337</ele>
        <time>2005-03-20T11:18:44Z</time>
      </trkpt>
      <trkpt lat="45.58807" lon="4.85347">
        <ele>337</ele>
        <time>2005-03-20T11:19:00Z</time>
      </trkpt>
      <trkpt lat="45.58798" lon="4.85345">
        <ele>337</ele>
        <time>2005-03-20T11:19:13Z</time>
      </trkpt>
      <trkpt lat="45.58798" lon="4.85343">
        <ele>337</ele>
        <time>2005-03-20T11:19:58Z</time>
      </trkpt>
      <trkpt lat="45.58794" lon="4.85328">
        <ele>334</ele>
        <time>2005-03-20T11:20:02Z</time>
      </trkpt>
      <trkpt lat="45.5879" lon="4.85272">
        <ele>328</ele>
        <time>2005-03-20T11:20:09Z</time>
      </trkpt>
      <trkpt lat="45.58785" lon="4.8524">
        <ele>325</ele>
        <time>2005-03-20T11:20:13Z</time>
      </trkpt>
      <trkpt lat="45.58785" lon="4.85233">
        <ele>325</ele>
        <time>2005-03-20T11:20:14Z</time>
      </trkpt>
      <trkpt lat="45.58768" lon="4.85167">
        <ele>320</ele>
        <time>2005-03-20T11:20:23Z</time>
      </trkpt>
      <trkpt lat="45.58749" lon="4.85113">
        <ele>316</ele>
        <time>2005-03-20T11:20:32Z</time>
      </trkpt>
      <trkpt lat="45.58725" lon="4.85053">
        <ele>308</ele>
        <time>2005-03-20T11:20:43Z</time>
      </trkpt>
      <trkpt lat="45.58717" lon="4.85019">
        <ele>306</ele>
        <time>2005-03-20T11:20:47Z</time>
      </trkpt>
      <trkpt lat="45.58717" lon="4.84984">
        <ele>305</ele>
        <time>2005-03-20T11:20:50Z</time>
      </trkpt>
      <trkpt lat="45.5871" lon="4.84926">
        <ele>301</ele>
        <time>2005-03-20T11:20:54Z</time>
      </trkpt>
      <trkpt lat="45.58713" lon="4.84873">
        <ele>298</ele>
        <time>2005-03-20T11:20:55Z</time>
      </trkpt>
      <trkpt lat="45.58702" lon="4.8483">
        <ele>294</ele>
        <time>2005-03-20T11:20:58Z</time>
      </trkpt>
      <trkpt lat="45.587" lon="4.84802">
        <ele>293</ele>
        <time>2005-03-20T11:21:00Z</time>
      </trkpt>
      <trkpt lat="45.58685" lon="4.84774">
        <ele>291</ele>
        <time>2005-03-20T11:21:02Z</time>
      </trkpt>
      <trkpt lat="45.58691" lon="4.84688">
        <ele>294</ele>
        <time>2005-03-20T11:21:11Z</time>
      </trkpt>
      <trkpt lat="45.58685" lon="4.84692">
        <ele>295</ele>
        <time>2005-03-20T11:22:07Z</time>
      </trkpt>
      <trkpt lat="45.58702" lon="4.84703">
        <ele>293</ele>
        <time>2005-03-20T11:22:14Z</time>
      </trkpt>
      <trkpt lat="45.58779" lon="4.84727">
        <ele>291</ele>
        <time>2005-03-20T11:22:30Z</time>
      </trkpt>
      <trkpt lat="45.58858" lon="4.84757">
        <ele>286</ele>
        <time>2005-03-20T11:22:45Z</time>
      </trkpt>
      <trkpt lat="45.58865" lon="4.84757">
        <ele>285</ele>
        <time>2005-03-20T11:22:46Z</time>
      </trkpt>
      <trkpt lat="45.58893" lon="4.84761">
        <ele>280</ele>
        <time>2005-03-20T11:22:49Z</time>
      </trkpt>
      <trkpt lat="45.58925" lon="4.84767">
        <ele>277</ele>
        <time>2005-03-20T11:22:52Z</time>
      </trkpt>
      <trkpt lat="45.58985" lon="4.84776">
        <ele>268</ele>
        <time>2005-03-20T11:22:58Z</time>
      </trkpt>
      <trkpt lat="45.59015" lon="4.84787">
        <ele>264</ele>
        <time>2005-03-20T11:23:01Z</time>
      </trkpt>
      <trkpt lat="45.59058" lon="4.84798">
        <ele>264</ele>
        <time>2005-03-20T11:23:06Z</time>
      </trkpt>
      <trkpt lat="45.59107" lon="4.84838">
        <ele>262</ele>
        <time>2005-03-20T11:23:14Z</time>
      </trkpt>
      <trkpt lat="45.59127" lon="4.8486">
        <ele>261</ele>
        <time>2005-03-20T11:23:18Z</time>
      </trkpt>
      <trkpt lat="45.59182" lon="4.84941">
        <ele>260</ele>
        <time>2005-03-20T11:23:31Z</time>
      </trkpt>
      <trkpt lat="45.59251" lon="4.85023">
        <ele>261</ele>
        <time>2005-03-20T11:23:47Z</time>
      </trkpt>
      <trkpt lat="45.5938" lon="4.85014">
        <ele>261</ele>
        <time>2005-03-20T11:24:05Z</time>
      </trkpt>
      <trkpt lat="45.59391" lon="4.85107">
        <ele>259</ele>
        <time>2005-03-20T11:24:11Z</time>
      </trkpt>
      <trkpt lat="45.59434" lon="4.85034">
        <ele>255</ele>
        <time>2005-03-20T11:24:15Z</time>
      </trkpt>
      <trkpt lat="45.59459" lon="4.85034">
        <ele>249</ele>
        <time>2005-03-20T11:24:18Z</time>
      </trkpt>
      <trkpt lat="45.59485" lon="4.8504">
        <ele>249</ele>
        <time>2005-03-20T11:24:22Z</time>
      </trkpt>
      <trkpt lat="45.59491" lon="4.85031">
        <ele>250</ele>
        <time>2005-03-20T11:24:26Z</time>
      </trkpt>
      <trkpt lat="45.59483" lon="4.84969">
        <ele>252</ele>
        <time>2005-03-20T11:24:42Z</time>
      </trkpt>
      <trkpt lat="45.59455" lon="4.84894">
        <ele>254</ele>
        <time>2005-03-20T11:25:02Z</time>
      </trkpt>
      <trkpt lat="45.59434" lon="4.8486">
        <ele>258</ele>
        <time>2005-03-20T11:25:17Z</time>
      </trkpt>
      <trkpt lat="45.5941" lon="4.8483">
        <ele>261</ele>
        <time>2005-03-20T11:25:34Z</time>
      </trkpt>
      <trkpt lat="45.59391" lon="4.848">
        <ele>264</ele>
        <time>2005-03-20T11:25:50Z</time>
      </trkpt>
      <trkpt lat="45.59369" lon="4.84759">
        <ele>266</ele>
        <time>2005-03-20T11:26:08Z</time>
      </trkpt>
      <trkpt lat="45.59346" lon="4.84695">
        <ele>266</ele>
        <time>2005-03-20T11:26:26Z</time>
      </trkpt>
      <trkpt lat="45.59326" lon="4.84615">
        <ele>264</ele>
        <time>2005-03-20T11:26:38Z</time>
      </trkpt>
      <trkpt lat="45.59318" lon="4.84577">
        <ele>259</ele>
        <time>2005-03-20T11:26:42Z</time>
      </trkpt>
      <trkpt lat="45.59311" lon="4.84553">
        <ele>255</ele>
        <time>2005-03-20T11:26:44Z</time>
      </trkpt>
      <trkpt lat="45.59296" lon="4.84514">
        <ele>250</ele>
        <time>2005-03-20T11:26:47Z</time>
      </trkpt>
      <trkpt lat="45.59251" lon="4.84386">
        <ele>252</ele>
        <time>2005-03-20T11:26:58Z</time>
      </trkpt>
      <trkpt lat="45.59247" lon="4.84371">
        <ele>253</ele>
        <time>2005-03-20T11:27:00Z</time>
      </trkpt>
      <trkpt lat="45.59217" lon="4.84287">
        <ele>256</ele>
        <time>2005-03-20T11:27:14Z</time>
      </trkpt>
      <trkpt lat="45.59195" lon="4.84214">
        <ele>258</ele>
        <time>2005-03-20T11:27:32Z</time>
      </trkpt>
      <trkpt lat="45.59182" lon="4.84139">
        <ele>264</ele>
        <time>2005-03-20T11:28:01Z</time>
      </trkpt>
      <trkpt lat="45.59178" lon="4.84107">
        <ele>266</ele>
        <time>2005-03-20T11:28:16Z</time>
      </trkpt>
      <trkpt lat="45.59165" lon="4.84081">
        <ele>269</ele>
        <time>2005-03-20T11:28:31Z</time>
      </trkpt>
      <trkpt lat="45.59159" lon="4.8407">
        <ele>271</ele>
        <time>2005-03-20T11:28:47Z</time>
      </trkpt>
      <trkpt lat="45.5912" lon="4.84014">
        <ele>279</ele>
        <time>2005-03-20T11:29:33Z</time>
      </trkpt>
      <trkpt lat="45.59109" lon="4.84006">
        <ele>278</ele>
        <time>2005-03-20T11:29:39Z</time>
      </trkpt>
      <trkpt lat="45.59116" lon="4.83976">
        <ele>277</ele>
        <time>2005-03-20T11:29:46Z</time>
      </trkpt>
      <trkpt lat="45.59127" lon="4.83971">
        <ele>277</ele>
        <time>2005-03-20T11:29:49Z</time>
      </trkpt>
      <trkpt lat="45.59161" lon="4.83952">
        <ele>272</ele>
        <time>2005-03-20T11:29:56Z</time>
      </trkpt>
      <trkpt lat="45.59206" lon="4.83918">
        <ele>268</ele>
        <time>2005-03-20T11:30:03Z</time>
      </trkpt>
      <trkpt lat="45.5924" lon="4.83896">
        <ele>265</ele>
        <time>2005-03-20T11:30:07Z</time>
      </trkpt>
      <trkpt lat="45.5938" lon="4.83828">
        <ele>268</ele>
        <time>2005-03-20T11:30:27Z</time>
      </trkpt>
      <trkpt lat="45.59386" lon="4.83825">
        <ele>268</ele>
        <time>2005-03-20T11:30:28Z</time>
      </trkpt>
      <trkpt lat="45.59401" lon="4.83838">
        <ele>269</ele>
        <time>2005-03-20T11:30:33Z</time>
      </trkpt>
      <trkpt lat="45.5941" lon="4.83898">
        <ele>271</ele>
        <time>2005-03-20T11:30:48Z</time>
      </trkpt>
      <trkpt lat="45.59393" lon="4.83946">
        <ele>269</ele>
        <time>2005-03-20T11:31:00Z</time>
      </trkpt>
      <trkpt lat="45.59361" lon="4.83991">
        <ele>269</ele>
        <time>2005-03-20T11:31:09Z</time>
      </trkpt>
      <trkpt lat="45.59352" lon="4.84042">
        <ele>270</ele>
        <time>2005-03-20T11:31:20Z</time>
      </trkpt>
      <trkpt lat="45.59339" lon="4.8413">
        <ele>271</ele>
        <time>2005-03-20T11:31:40Z</time>
      </trkpt>
      <trkpt lat="45.59335" lon="4.84165">
        <ele>270</ele>
        <time>2005-03-20T11:31:46Z</time>
      </trkpt>
      <trkpt lat="45.59354" lon="4.84175">
        <ele>271</ele>
        <time>2005-03-20T11:31:55Z</time>
      </trkpt>
      <trkpt lat="45.59421" lon="4.84197">
        <ele>275</ele>
        <time>2005-03-20T11:32:33Z</time>
      </trkpt>
      <trkpt lat="45.59446" lon="4.84225">
        <ele>274</ele>
        <time>2005-03-20T11:32:49Z</time>
      </trkpt>
      <trkpt lat="45.59406" lon="4.8434">
        <ele>273</ele>
        <time>2005-03-20T11:33:28Z</time>
      </trkpt>
      <trkpt lat="45.59438" lon="4.84366">
        <ele>271</ele>
        <time>2005-03-20T11:33:44Z</time>
      </trkpt>
      <trkpt lat="45.59444" lon="4.84368">
        <ele>269</ele>
        <time>2005-03-20T11:33:46Z</time>
      </trkpt>
      <trkpt lat="45.59457" lon="4.84381">
        <ele>268</ele>
        <time>2005-03-20T11:33:49Z</time>
      </trkpt>
      <trkpt lat="45.59479" lon="4.84416">
        <ele>264</ele>
        <time>2005-03-20T11:33:54Z</time>
      </trkpt>
      <trkpt lat="45.595" lon="4.84435">
        <ele>268</ele>
        <time>2005-03-20T11:33:59Z</time>
      </trkpt>
      <trkpt lat="45.59534" lon="4.8445">
        <ele>271</ele>
        <time>2005-03-20T11:34:13Z</time>
      </trkpt>
      <trkpt lat="45.59558" lon="4.84478">
        <ele>272</ele>
        <time>2005-03-20T11:34:32Z</time>
      </trkpt>
      <trkpt lat="45.59567" lon="4.84501">
        <ele>267</ele>
        <time>2005-03-20T11:34:39Z</time>
      </trkpt>
      <trkpt lat="45.59571" lon="4.84521">
        <ele>263</ele>
        <time>2005-03-20T11:34:42Z</time>
      </trkpt>
      <trkpt lat="45.59577" lon="4.84538">
        <ele>260</ele>
        <time>2005-03-20T11:34:44Z</time>
      </trkpt>
      <trkpt lat="45.59577" lon="4.84544">
        <ele>260</ele>
        <time>2005-03-20T11:34:45Z</time>
      </trkpt>
      <trkpt lat="45.59584" lon="4.84577">
        <ele>258</ele>
        <time>2005-03-20T11:34:49Z</time>
      </trkpt>
      <trkpt lat="45.59582" lon="4.84583">
        <ele>256</ele>
        <time>2005-03-20T11:34:51Z</time>
      </trkpt>
      <trkpt lat="45.59558" lon="4.84604">
        <ele>251</ele>
        <time>2005-03-20T11:34:58Z</time>
      </trkpt>
      <trkpt lat="45.59537" lon="4.84622">
        <ele>246</ele>
        <time>2005-03-20T11:35:04Z</time>
      </trkpt>
      <trkpt lat="45.59517" lon="4.84639">
        <ele>242</ele>
        <time>2005-03-20T11:35:09Z</time>
      </trkpt>
      <trkpt lat="45.59519" lon="4.84654">
        <ele>240</ele>
        <time>2005-03-20T11:35:11Z</time>
      </trkpt>
      <trkpt lat="45.5953" lon="4.8469">
        <ele>241</ele>
        <time>2005-03-20T11:35:17Z</time>
      </trkpt>
      <trkpt lat="45.59547" lon="4.84774">
        <ele>239</ele>
        <time>2005-03-20T11:35:33Z</time>
      </trkpt>
      <trkpt lat="45.59545" lon="4.84804">
        <ele>238</ele>
        <time>2005-03-20T11:35:38Z</time>
      </trkpt>
      <trkpt lat="45.59543" lon="4.84851">
        <ele>238</ele>
        <time>2005-03-20T11:35:47Z</time>
      </trkpt>
      <trkpt lat="45.59571" lon="4.84901">
        <ele>237</ele>
        <time>2005-03-20T11:35:59Z</time>
      </trkpt>
      <trkpt lat="45.59607" lon="4.8492">
        <ele>234</ele>
        <time>2005-03-20T11:36:07Z</time>
      </trkpt>
      <trkpt lat="45.59657" lon="4.84943">
        <ele>234</ele>
        <time>2005-03-20T11:36:20Z</time>
      </trkpt>
      <trkpt lat="45.59777" lon="4.84952">
        <ele>232</ele>
        <time>2005-03-20T11:36:39Z</time>
      </trkpt>
      <trkpt lat="45.59775" lon="4.84939">
        <ele>233</ele>
        <time>2005-03-20T11:36:51Z</time>
      </trkpt>
      <trkpt lat="45.59815" lon="4.84997">
        <ele>231</ele>
        <time>2005-03-20T11:37:06Z</time>
      </trkpt>
      <trkpt lat="45.59841" lon="4.85021">
        <ele>230</ele>
        <time>2005-03-20T11:37:12Z</time>
      </trkpt>
      <trkpt lat="45.59861" lon="4.85023">
        <ele>230</ele>
        <time>2005-03-20T11:37:16Z</time>
      </trkpt>
      <trkpt lat="45.59893" lon="4.84995">
        <ele>229</ele>
        <time>2005-03-20T11:37:24Z</time>
      </trkpt>
      <trkpt lat="45.59925" lon="4.84866">
        <ele>230</ele>
        <time>2005-03-20T11:37:45Z</time>
      </trkpt>
      <trkpt lat="45.59931" lon="4.84845">
        <ele>229</ele>
        <time>2005-03-20T11:37:48Z</time>
      </trkpt>
      <trkpt lat="45.59957" lon="4.84821">
        <ele>230</ele>
        <time>2005-03-20T11:37:54Z</time>
      </trkpt>
      <trkpt lat="45.59996" lon="4.84806">
        <ele>229</ele>
        <time>2005-03-20T11:38:10Z</time>
      </trkpt>
      <trkpt lat="45.60084" lon="4.84748">
        <ele>229</ele>
        <time>2005-03-20T11:38:24Z</time>
      </trkpt>
      <trkpt lat="45.6015" lon="4.84671">
        <ele>229</ele>
        <time>2005-03-20T11:38:43Z</time>
      </trkpt>
      <trkpt lat="45.6021" lon="4.84587">
        <ele>226</ele>
        <time>2005-03-20T11:39:00Z</time>
      </trkpt>
      <trkpt lat="45.60296" lon="4.84504">
        <ele>225</ele>
        <time>2005-03-20T11:39:21Z</time>
      </trkpt>
      <trkpt lat="45.60373" lon="4.84452">
        <ele>225</ele>
        <time>2005-03-20T11:39:39Z</time>
      </trkpt>
      <trkpt lat="45.60442" lon="4.84428">
        <ele>227</ele>
        <time>2005-03-20T11:39:58Z</time>
      </trkpt>
      <trkpt lat="45.60463" lon="4.84424">
        <ele>230</ele>
        <time>2005-03-20T11:40:05Z</time>
      </trkpt>
      <trkpt lat="45.60592" lon="4.84386">
        <ele>229</ele>
        <time>2005-03-20T11:40:52Z</time>
      </trkpt>
      <trkpt lat="45.60622" lon="4.84373">
        <ele>229</ele>
        <time>2005-03-20T11:40:56Z</time>
      </trkpt>
      <trkpt lat="45.6071" lon="4.84343">
        <ele>231</ele>
        <time>2005-03-20T11:41:17Z</time>
      </trkpt>
      <trkpt lat="45.60893" lon="4.84222">
        <ele>231</ele>
        <time>2005-03-20T11:41:59Z</time>
      </trkpt>
      <trkpt lat="45.61133" lon="4.84081">
        <ele>245</ele>
        <time>2005-03-20T11:43:41Z</time>
      </trkpt>
      <trkpt lat="45.61169" lon="4.84004">
        <ele>247</ele>
        <time>2005-03-20T11:43:59Z</time>
      </trkpt>
      <trkpt lat="45.61221" lon="4.83952">
        <ele>253</ele>
        <time>2005-03-20T11:44:39Z</time>
      </trkpt>
      <trkpt lat="45.61251" lon="4.83926">
        <ele>257</ele>
        <time>2005-03-20T11:45:03Z</time>
      </trkpt>
      <trkpt lat="45.61287" lon="4.83905">
        <ele>262</ele>
        <time>2005-03-20T11:45:37Z</time>
      </trkpt>
      <trkpt lat="45.61335" lon="4.83864">
        <ele>270</ele>
        <time>2005-03-20T11:46:30Z</time>
      </trkpt>
      <trkpt lat="45.61337" lon="4.8386">
        <ele>271</ele>
        <time>2005-03-20T11:46:33Z</time>
      </trkpt>
      <trkpt lat="45.61345" lon="4.83849">
        <ele>273</ele>
        <time>2005-03-20T11:46:44Z</time>
      </trkpt>
      <trkpt lat="45.61356" lon="4.83828">
        <ele>276</ele>
        <time>2005-03-20T11:47:03Z</time>
      </trkpt>
      <trkpt lat="45.61365" lon="4.83808">
        <ele>279</ele>
        <time>2005-03-20T11:47:19Z</time>
      </trkpt>
      <trkpt lat="45.61375" lon="4.83791">
        <ele>281</ele>
        <time>2005-03-20T11:47:36Z</time>
      </trkpt>
      <trkpt lat="45.61395" lon="4.83772">
        <ele>283</ele>
        <time>2005-03-20T11:47:55Z</time>
      </trkpt>
      <trkpt lat="45.61412" lon="4.83759">
        <ele>286</ele>
        <time>2005-03-20T11:48:12Z</time>
      </trkpt>
      <trkpt lat="45.61451" lon="4.83725">
        <ele>292</ele>
        <time>2005-03-20T11:48:52Z</time>
      </trkpt>
      <trkpt lat="45.61448" lon="4.83705">
        <ele>292</ele>
        <time>2005-03-20T11:49:08Z</time>
      </trkpt>
      <trkpt lat="45.61429" lon="4.83654">
        <ele>292</ele>
        <time>2005-03-20T11:49:26Z</time>
      </trkpt>
      <trkpt lat="45.61403" lon="4.83609">
        <ele>292</ele>
        <time>2005-03-20T11:49:39Z</time>
      </trkpt>
      <trkpt lat="45.61371" lon="4.83547">
        <ele>297</ele>
        <time>2005-03-20T11:49:58Z</time>
      </trkpt>
      <trkpt lat="45.61339" lon="4.83493">
        <ele>300</ele>
        <time>2005-03-20T11:50:18Z</time>
      </trkpt>
      <trkpt lat="45.61302" lon="4.83437">
        <ele>302</ele>
        <time>2005-03-20T11:50:38Z</time>
      </trkpt>
      <trkpt lat="45.61266" lon="4.83379">
        <ele>303</ele>
        <time>2005-03-20T11:50:57Z</time>
      </trkpt>
      <trkpt lat="45.61227" lon="4.83328">
        <ele>306</ele>
        <time>2005-03-20T11:51:17Z</time>
      </trkpt>
      <trkpt lat="45.61193" lon="4.83293">
        <ele>309</ele>
        <time>2005-03-20T11:51:33Z</time>
      </trkpt>
      <trkpt lat="45.61172" lon="4.83268">
        <ele>305</ele>
        <time>2005-03-20T11:51:45Z</time>
      </trkpt>
      <trkpt lat="45.61167" lon="4.83257">
        <ele>302</ele>
        <time>2005-03-20T11:51:47Z</time>
      </trkpt>
      <trkpt lat="45.61159" lon="4.83244">
        <ele>298</ele>
        <time>2005-03-20T11:51:49Z</time>
      </trkpt>
      <trkpt lat="45.61107" lon="4.8315">
        <ele>292</ele>
        <time>2005-03-20T11:51:59Z</time>
      </trkpt>
      <trkpt lat="45.61086" lon="4.83154">
        <ele>289</ele>
        <time>2005-03-20T11:52:04Z</time>
      </trkpt>
      <trkpt lat="45.6106" lon="4.83173">
        <ele>284</ele>
        <time>2005-03-20T11:52:08Z</time>
      </trkpt>
      <trkpt lat="45.61051" lon="4.83177">
        <ele>284</ele>
        <time>2005-03-20T11:52:10Z</time>
      </trkpt>
      <trkpt lat="45.61043" lon="4.83177">
        <ele>281</ele>
        <time>2005-03-20T11:52:13Z</time>
      </trkpt>
      <trkpt lat="45.61041" lon="4.83171">
        <ele>281</ele>
        <time>2005-03-20T11:52:14Z</time>
      </trkpt>
      <trkpt lat="45.61021" lon="4.83085">
        <ele>283</ele>
        <time>2005-03-20T11:52:32Z</time>
      </trkpt>
      <trkpt lat="45.61013" lon="4.83004">
        <ele>283</ele>
        <time>2005-03-20T11:52:52Z</time>
      </trkpt>
      <trkpt lat="45.60991" lon="4.82993">
        <ele>278</ele>
        <time>2005-03-20T11:52:56Z</time>
      </trkpt>
      <trkpt lat="45.60985" lon="4.82991">
        <ele>275</ele>
        <time>2005-03-20T11:52:57Z</time>
      </trkpt>
      <trkpt lat="45.60976" lon="4.82987">
        <ele>272</ele>
        <time>2005-03-20T11:52:58Z</time>
      </trkpt>
      <trkpt lat="45.60929" lon="4.82967">
        <ele>263</ele>
        <time>2005-03-20T11:53:03Z</time>
      </trkpt>
      <trkpt lat="45.60873" lon="4.82939">
        <ele>258</ele>
        <time>2005-03-20T11:53:08Z</time>
      </trkpt>
      <trkpt lat="45.60815" lon="4.82922">
        <ele>257</ele>
        <time>2005-03-20T11:53:14Z</time>
      </trkpt>
      <trkpt lat="45.60805" lon="4.82916">
        <ele>257</ele>
        <time>2005-03-20T11:53:17Z</time>
      </trkpt>
      <trkpt lat="45.60777" lon="4.82759">
        <ele>256</ele>
        <time>2005-03-20T11:53:37Z</time>
      </trkpt>
      <trkpt lat="45.6077" lon="4.82738">
        <ele>256</ele>
        <time>2005-03-20T11:53:40Z</time>
      </trkpt>
      <trkpt lat="45.60764" lon="4.82725">
        <ele>253</ele>
        <time>2005-03-20T11:53:42Z</time>
      </trkpt>
      <trkpt lat="45.60738" lon="4.8271">
        <ele>250</ele>
        <time>2005-03-20T11:53:46Z</time>
      </trkpt>
      <trkpt lat="45.60706" lon="4.82723">
        <ele>247</ele>
        <time>2005-03-20T11:53:50Z</time>
      </trkpt>
      <trkpt lat="45.60697" lon="4.82729">
        <ele>247</ele>
        <time>2005-03-20T11:53:51Z</time>
      </trkpt>
      <trkpt lat="45.60689" lon="4.82733">
        <ele>247</ele>
        <time>2005-03-20T11:53:52Z</time>
      </trkpt>
      <trkpt lat="45.60672" lon="4.82748">
        <ele>243</ele>
        <time>2005-03-20T11:53:54Z</time>
      </trkpt>
      <trkpt lat="45.60642" lon="4.8277">
        <ele>242</ele>
        <time>2005-03-20T11:53:58Z</time>
      </trkpt>
      <trkpt lat="45.6059" lon="4.82811">
        <ele>242</ele>
        <time>2005-03-20T11:54:12Z</time>
      </trkpt>
      <trkpt lat="45.60577" lon="4.82813">
        <ele>241</ele>
        <time>2005-03-20T11:54:15Z</time>
      </trkpt>
      <trkpt lat="45.60519" lon="4.82828">
        <ele>242</ele>
        <time>2005-03-20T11:54:31Z</time>
      </trkpt>
      <trkpt lat="45.60483" lon="4.82826">
        <ele>241</ele>
        <time>2005-03-20T11:54:47Z</time>
      </trkpt>
      <trkpt lat="45.60476" lon="4.82819">
        <ele>241</ele>
        <time>2005-03-20T11:54:53Z</time>
      </trkpt>
      <trkpt lat="45.60476" lon="4.82841">
        <ele>241</ele>
        <time>2005-03-20T11:55:01Z</time>
      </trkpt>
      <trkpt lat="45.60468" lon="4.82903">
        <ele>241</ele>
        <time>2005-03-20T11:55:20Z</time>
      </trkpt>
    </trkseg>
  </trk>
</gpx>